SIA11 RJAA-WSSS
Flight info
| Callsign | SIA11 |
|---|---|
| Flight time | 6h 50m |
| Altitude | 34000 |
| Route | SAMUS/N0488F360 BUBDO A590 MUPOB/N0489F380 A590 JOM/N0494F360 M767 TODAM/N0486F390 M767 TOMAN KARTO2B |
| Aircraft | B77W/H-SDE1E2E3FGHIJ4J5M1P2RWXYZ/LB1D1 |
Departure
| Time | 2026-05-06 13:50 |
|---|---|
| Airport | Narita International Airport (RJAA) |
Arrival
| Time | 2026-05-06 20:41 |
|---|---|
| Airport | Singapore Changi Airport (WSSS) |
| Time | Latitude | Longitude | Altitude | Speed | Heading |
|---|---|---|---|---|---|
| 2026-05-06 13:25 | 35.76243 | 140.38324 | 151 ft | 0 kts | 60° |
| 2026-05-06 13:38 | 35.76242 | 140.38322 | 151 ft | 2 kts | 60° |
| 2026-05-06 13:38 | 35.76231 | 140.38293 | 151 ft | 4 kts | 75° |
| 2026-05-06 13:39 | 35.76227 | 140.38260 | 151 ft | 4 kts | 92° |
| 2026-05-06 13:39 | 35.76231 | 140.38228 | 151 ft | 4 kts | 110° |
| 2026-05-06 13:39 | 35.76243 | 140.38199 | 151 ft | 4 kts | 133° |
| 2026-05-06 13:39 | 35.76255 | 140.38186 | 150 ft | 0 kts | 149° |
| 2026-05-06 13:42 | 35.76254 | 140.38186 | 150 ft | 0 kts | 149° |
| 2026-05-06 13:42 | 35.76253 | 140.38187 | 150 ft | 0 kts | 149° |
| 2026-05-06 13:43 | 35.76252 | 140.38188 | 150 ft | 0 kts | 149° |
| 2026-05-06 13:43 | 35.76251 | 140.38189 | 150 ft | 0 kts | 149° |
| 2026-05-06 13:43 | 35.76249 | 140.38190 | 150 ft | 0 kts | 149° |
| 2026-05-06 13:43 | 35.76232 | 140.38203 | 151 ft | 7 kts | 148° |
| 2026-05-06 13:44 | 35.76178 | 140.38243 | 151 ft | 9 kts | 150° |
| 2026-05-06 13:44 | 35.76120 | 140.38283 | 151 ft | 9 kts | 154° |
| 2026-05-06 13:44 | 35.76057 | 140.38278 | 151 ft | 10 kts | 206° |
| 2026-05-06 13:44 | 35.75985 | 140.38266 | 151 ft | 13 kts | 166° |
| 2026-05-06 13:45 | 35.75885 | 140.38337 | 151 ft | 17 kts | 152° |
| 2026-05-06 13:45 | 35.75685 | 140.38481 | 151 ft | 16 kts | 149° |
| 2026-05-06 13:45 | 35.75591 | 140.38550 | 151 ft | 16 kts | 149° |
| 2026-05-06 13:46 | 35.75497 | 140.38619 | 151 ft | 16 kts | 149° |
| 2026-05-06 13:46 | 35.75399 | 140.38678 | 151 ft | 16 kts | 167° |
| 2026-05-06 13:46 | 35.75293 | 140.38660 | 150 ft | 16 kts | 182° |
| 2026-05-06 13:46 | 35.75191 | 140.38707 | 150 ft | 16 kts | 146° |
| 2026-05-06 13:47 | 35.75098 | 140.38777 | 150 ft | 16 kts | 149° |
| 2026-05-06 13:47 | 35.75003 | 140.38846 | 151 ft | 16 kts | 149° |
| 2026-05-06 13:47 | 35.74908 | 140.38914 | 151 ft | 16 kts | 149° |
| 2026-05-06 13:47 | 35.74814 | 140.38983 | 151 ft | 16 kts | 149° |
| 2026-05-06 13:48 | 35.74719 | 140.39051 | 150 ft | 16 kts | 149° |
| 2026-05-06 13:48 | 35.74623 | 140.39121 | 149 ft | 16 kts | 149° |
| 2026-05-06 13:48 | 35.74526 | 140.39190 | 149 ft | 16 kts | 151° |
| 2026-05-06 13:48 | 35.74424 | 140.39215 | 148 ft | 16 kts | 212° |
| 2026-05-06 13:49 | 35.74375 | 140.39089 | 144 ft | 17 kts | 267° |
| 2026-05-06 13:49 | 35.74454 | 140.38989 | 145 ft | 18 kts | 331° |
| 2026-05-06 13:49 | 35.74688 | 140.38823 | 147 ft | 73 kts | 329° |
| 2026-05-06 13:49 | 35.75335 | 140.38355 | 145 ft | 142 kts | 329° |
| 2026-05-06 13:50 | 35.76354 | 140.37619 | 226 ft | 188 kts | 328° |
| 2026-05-06 13:50 | 35.77451 | 140.36779 | 971 ft | 187 kts | 326° |
| 2026-05-06 13:50 | 35.78615 | 140.35929 | 1483 ft | 200 kts | 326° |
| 2026-05-06 13:50 | 35.79832 | 140.35068 | 2055 ft | 208 kts | 325° |
| 2026-05-06 13:51 | 35.81161 | 140.34119 | 2286 ft | 234 kts | 326° |
| 2026-05-06 13:51 | 35.82653 | 140.33049 | 2513 ft | 260 kts | 326° |
| 2026-05-06 13:51 | 35.84236 | 140.31915 | 3232 ft | 267 kts | 326° |
| 2026-05-06 13:51 | 35.85907 | 140.30901 | 3911 ft | 274 kts | 343° |
| 2026-05-06 13:52 | 35.87829 | 140.30976 | 4588 ft | 284 kts | 19° |
| 2026-05-06 13:52 | 35.89455 | 140.32343 | 5351 ft | 287 kts | 51° |
| 2026-05-06 13:52 | 35.90411 | 140.34484 | 6100 ft | 287 kts | 75° |
| 2026-05-06 13:52 | 35.90719 | 140.36916 | 6796 ft | 288 kts | 92° |
| 2026-05-06 13:53 | 35.90633 | 140.39409 | 7420 ft | 294 kts | 97° |
| 2026-05-06 13:53 | 35.90448 | 140.41939 | 8079 ft | 299 kts | 98° |
| 2026-05-06 13:53 | 35.90251 | 140.44515 | 8781 ft | 304 kts | 98° |
| 2026-05-06 13:53 | 35.90062 | 140.47132 | 9468 ft | 309 kts | 97° |
| 2026-05-06 13:54 | 35.89884 | 140.49760 | 10097 ft | 315 kts | 97° |
| 2026-05-06 13:54 | 35.89707 | 140.52520 | 10461 ft | 333 kts | 97° |
| 2026-05-06 13:54 | 35.89525 | 140.55465 | 10641 ft | 357 kts | 96° |
| 2026-05-06 13:54 | 35.89335 | 140.58622 | 10824 ft | 381 kts | 96° |
| 2026-05-06 13:55 | 35.89135 | 140.61956 | 11213 ft | 396 kts | 96° |
| 2026-05-06 13:55 | 35.88605 | 140.65289 | 11618 ft | 400 kts | 115° |
| 2026-05-06 13:55 | 35.87097 | 140.68152 | 12311 ft | 400 kts | 137° |
| 2026-05-06 13:55 | 35.84960 | 140.70291 | 13237 ft | 393 kts | 152° |
| 2026-05-06 13:56 | 35.82578 | 140.71987 | 14019 ft | 399 kts | 155° |
| 2026-05-06 13:56 | 35.80139 | 140.73668 | 14770 ft | 404 kts | 155° |
| 2026-05-06 13:56 | 35.77673 | 140.75392 | 15564 ft | 410 kts | 154° |
| 2026-05-06 13:56 | 35.75189 | 140.77163 | 16345 ft | 415 kts | 154° |
| 2026-05-06 13:57 | 35.72678 | 140.78965 | 17106 ft | 421 kts | 155° |
| 2026-05-06 13:57 | 35.70065 | 140.80612 | 17832 ft | 423 kts | 161° |
| 2026-05-06 13:57 | 35.67298 | 140.81888 | 18510 ft | 427 kts | 168° |
| 2026-05-06 13:57 | 35.64469 | 140.83079 | 19097 ft | 432 kts | 168° |
| 2026-05-06 13:58 | 35.61626 | 140.84275 | 19927 ft | 431 kts | 168° |
| 2026-05-06 13:58 | 35.58801 | 140.85475 | 20817 ft | 429 kts | 168° |
| 2026-05-06 13:58 | 35.55989 | 140.86678 | 21680 ft | 428 kts | 168° |
| 2026-05-06 13:58 | 35.53176 | 140.87886 | 22446 ft | 429 kts | 168° |
| 2026-05-06 13:59 | 35.50355 | 140.89101 | 23109 ft | 431 kts | 169° |
| 2026-05-06 13:59 | 35.47503 | 140.90327 | 23612 ft | 437 kts | 169° |
| 2026-05-06 13:59 | 35.44660 | 140.91549 | 24090 ft | 441 kts | 169° |
| 2026-05-06 13:59 | 35.41759 | 140.92799 | 24577 ft | 444 kts | 169° |
| 2026-05-06 14:00 | 35.38834 | 140.94059 | 25066 ft | 447 kts | 169° |
| 2026-05-06 14:00 | 35.35890 | 140.95326 | 25529 ft | 450 kts | 170° |
| 2026-05-06 14:00 | 35.32918 | 140.96604 | 25919 ft | 456 kts | 170° |
| 2026-05-06 14:00 | 35.29905 | 140.97897 | 26280 ft | 462 kts | 170° |
| 2026-05-06 14:01 | 35.26865 | 140.99202 | 26733 ft | 464 kts | 170° |
| 2026-05-06 14:01 | 35.23803 | 141.00397 | 27139 ft | 457 kts | 177° |
| 2026-05-06 14:01 | 35.20698 | 141.00703 | 27472 ft | 442 kts | 192° |
| 2026-05-06 14:01 | 35.17693 | 141.00125 | 27917 ft | 433 kts | 201° |
| 2026-05-06 14:02 | 35.14887 | 140.98888 | 28241 ft | 428 kts | 211° |
| 2026-05-06 14:02 | 35.12197 | 140.97263 | 28402 ft | 435 kts | 211° |
| 2026-05-06 14:02 | 35.09484 | 140.95592 | 28756 ft | 438 kts | 212° |
| 2026-05-06 14:02 | 35.06757 | 140.93916 | 29218 ft | 439 kts | 211° |
| 2026-05-06 14:03 | 35.04017 | 140.92245 | 29641 ft | 441 kts | 211° |
| 2026-05-06 14:03 | 35.01261 | 140.90580 | 30001 ft | 444 kts | 211° |
| 2026-05-06 14:03 | 34.98481 | 140.88913 | 30327 ft | 446 kts | 211° |
| 2026-05-06 14:03 | 34.95697 | 140.87253 | 30726 ft | 445 kts | 211° |
| 2026-05-06 14:04 | 34.92923 | 140.85605 | 31197 ft | 442 kts | 211° |
| 2026-05-06 14:04 | 34.90163 | 140.83970 | 31648 ft | 440 kts | 211° |
| 2026-05-06 14:04 | 34.87413 | 140.82341 | 32023 ft | 440 kts | 211° |
| 2026-05-06 14:04 | 34.85591 | 140.81261 | 32282 ft | 439 kts | 211° |
| 2026-05-06 14:05 | 34.82849 | 140.79638 | 32704 ft | 437 kts | 212° |
| 2026-05-06 14:05 | 34.80125 | 140.78027 | 33140 ft | 434 kts | 212° |
| 2026-05-06 14:05 | 34.76539 | 140.75907 | 33734 ft | 431 kts | 212° |
| 2026-05-06 14:05 | 34.73846 | 140.74315 | 34122 ft | 430 kts | 212° |
| 2026-05-06 14:06 | 34.68445 | 140.71123 | 34516 ft | 431 kts | 212° |
| 2026-05-06 14:06 | 34.66626 | 140.70051 | 34802 ft | 428 kts | 213° |
| 2026-05-06 14:06 | 34.63959 | 140.68482 | 35144 ft | 425 kts | 213° |
| 2026-05-06 14:07 | 34.61293 | 140.66911 | 35356 ft | 426 kts | 213° |
| 2026-05-06 14:07 | 34.58627 | 140.65341 | 35653 ft | 425 kts | 213° |
| 2026-05-06 14:07 | 34.55975 | 140.63781 | 35989 ft | 423 kts | 213° |
| 2026-05-06 14:07 | 34.53359 | 140.62242 | 36067 ft | 425 kts | 213° |
| 2026-05-06 14:08 | 34.48044 | 140.59120 | 36128 ft | 423 kts | 213° |
| 2026-05-06 14:08 | 34.42759 | 140.56024 | 36139 ft | 421 kts | 213° |
| 2026-05-06 14:09 | 34.37503 | 140.52946 | 36126 ft | 419 kts | 213° |
| 2026-05-06 14:09 | 34.32245 | 140.49870 | 36145 ft | 420 kts | 213° |
| 2026-05-06 14:10 | 34.26962 | 140.46783 | 36145 ft | 423 kts | 213° |
| 2026-05-06 14:10 | 34.21648 | 140.43685 | 36145 ft | 425 kts | 213° |
| 2026-05-06 14:11 | 34.16303 | 140.40572 | 36139 ft | 427 kts | 213° |
| 2026-05-06 14:11 | 34.10974 | 140.37476 | 36128 ft | 428 kts | 213° |
| 2026-05-06 14:12 | 34.05602 | 140.34357 | 36143 ft | 429 kts | 213° |
| 2026-05-06 14:12 | 34.00221 | 140.31238 | 36138 ft | 429 kts | 213° |
| 2026-05-06 14:13 | 33.94841 | 140.28122 | 36136 ft | 429 kts | 213° |
| 2026-05-06 14:13 | 33.89462 | 140.25013 | 36139 ft | 428 kts | 213° |
| 2026-05-06 14:14 | 33.84537 | 140.21215 | 36135 ft | 416 kts | 225° |
| 2026-05-06 14:14 | 33.80380 | 140.16447 | 36134 ft | 410 kts | 234° |
| 2026-05-06 14:15 | 33.76893 | 140.11049 | 36137 ft | 409 kts | 236° |
| 2026-05-06 14:15 | 33.73427 | 140.05619 | 36140 ft | 410 kts | 236° |
| 2026-05-06 14:16 | 33.69963 | 140.00228 | 36137 ft | 411 kts | 236° |
| 2026-05-06 14:16 | 33.66453 | 139.94798 | 36133 ft | 412 kts | 235° |
| 2026-05-06 14:17 | 33.62935 | 139.89372 | 36139 ft | 412 kts | 235° |
| 2026-05-06 14:17 | 33.59415 | 139.83954 | 36127 ft | 412 kts | 235° |
| 2026-05-06 14:18 | 33.55895 | 139.78542 | 36126 ft | 411 kts | 235° |
| 2026-05-06 14:18 | 33.52371 | 139.73134 | 36113 ft | 411 kts | 235° |
| 2026-05-06 14:19 | 33.48853 | 139.67741 | 36128 ft | 411 kts | 235° |
| 2026-05-06 14:19 | 33.45332 | 139.62352 | 36138 ft | 411 kts | 235° |
| 2026-05-06 14:20 | 33.41833 | 139.57004 | 36121 ft | 411 kts | 235° |
| 2026-05-06 14:20 | 33.38309 | 139.51626 | 36121 ft | 411 kts | 235° |
| 2026-05-06 14:21 | 33.34777 | 139.46244 | 36128 ft | 411 kts | 234° |
| 2026-05-06 14:21 | 33.31241 | 139.40865 | 36121 ft | 412 kts | 234° |
| 2026-05-06 14:22 | 33.27697 | 139.35480 | 36123 ft | 412 kts | 234° |
| 2026-05-06 14:22 | 33.24147 | 139.30094 | 36122 ft | 413 kts | 234° |
| 2026-05-06 14:23 | 33.20592 | 139.24709 | 36119 ft | 413 kts | 234° |
| 2026-05-06 14:23 | 33.17057 | 139.19362 | 36124 ft | 413 kts | 234° |
| 2026-05-06 14:24 | 33.13500 | 139.13988 | 36119 ft | 413 kts | 234° |
| 2026-05-06 14:24 | 33.09936 | 139.08614 | 36120 ft | 413 kts | 234° |
| 2026-05-06 14:25 | 33.06372 | 139.03246 | 36119 ft | 413 kts | 234° |
| 2026-05-06 14:25 | 33.02807 | 138.97885 | 36118 ft | 413 kts | 234° |
| 2026-05-06 14:26 | 32.99237 | 138.92524 | 36120 ft | 413 kts | 234° |
| 2026-05-06 14:26 | 32.95664 | 138.87166 | 36119 ft | 413 kts | 234° |
| 2026-05-06 14:27 | 32.92090 | 138.81813 | 36118 ft | 413 kts | 233° |
| 2026-05-06 14:27 | 32.88511 | 138.76462 | 36101 ft | 414 kts | 233° |
| 2026-05-06 14:28 | 32.84920 | 138.71101 | 36118 ft | 415 kts | 233° |
| 2026-05-06 14:28 | 32.81338 | 138.65760 | 36120 ft | 417 kts | 233° |
| 2026-05-06 14:29 | 32.77714 | 138.60366 | 36115 ft | 418 kts | 233° |
| 2026-05-06 14:29 | 32.74072 | 138.54952 | 36119 ft | 420 kts | 233° |
| 2026-05-06 14:30 | 32.70421 | 138.49533 | 36117 ft | 420 kts | 233° |
| 2026-05-06 14:30 | 32.66766 | 138.44115 | 36117 ft | 420 kts | 233° |
| 2026-05-06 14:31 | 32.63108 | 138.38701 | 36111 ft | 420 kts | 233° |
| 2026-05-06 14:31 | 32.59454 | 138.33301 | 36117 ft | 420 kts | 233° |
| 2026-05-06 14:32 | 32.55823 | 138.27942 | 36112 ft | 419 kts | 233° |
| 2026-05-06 14:32 | 32.52170 | 138.22559 | 36113 ft | 419 kts | 233° |
| 2026-05-06 14:33 | 32.48518 | 138.17185 | 36115 ft | 418 kts | 232° |
| 2026-05-06 14:33 | 32.44868 | 138.11821 | 36110 ft | 418 kts | 232° |
| 2026-05-06 14:34 | 32.41218 | 138.06465 | 36112 ft | 418 kts | 232° |
| 2026-05-06 14:34 | 32.37565 | 138.01113 | 36099 ft | 419 kts | 232° |
| 2026-05-06 14:35 | 32.33897 | 137.95745 | 36111 ft | 420 kts | 232° |
| 2026-05-06 14:35 | 32.30216 | 137.90367 | 36111 ft | 422 kts | 232° |
| 2026-05-06 14:36 | 32.26520 | 137.84975 | 36108 ft | 423 kts | 232° |
| 2026-05-06 14:36 | 32.22812 | 137.79572 | 36102 ft | 423 kts | 232° |
| 2026-05-06 14:37 | 32.19126 | 137.74211 | 36104 ft | 423 kts | 232° |
| 2026-05-06 14:37 | 32.15414 | 137.68818 | 36103 ft | 423 kts | 232° |
| 2026-05-06 14:38 | 32.11702 | 137.63434 | 36098 ft | 423 kts | 232° |
| 2026-05-06 14:38 | 32.07997 | 137.58067 | 36092 ft | 422 kts | 232° |
| 2026-05-06 14:39 | 32.04286 | 137.52699 | 36097 ft | 422 kts | 232° |
| 2026-05-06 14:39 | 32.00579 | 137.47344 | 36098 ft | 422 kts | 232° |
| 2026-05-06 14:40 | 31.96892 | 137.42026 | 36096 ft | 422 kts | 232° |
| 2026-05-06 14:40 | 31.93179 | 137.36677 | 36091 ft | 422 kts | 231° |
| 2026-05-06 14:41 | 31.89459 | 137.31326 | 36081 ft | 422 kts | 231° |
| 2026-05-06 14:41 | 31.85728 | 137.25968 | 36091 ft | 424 kts | 231° |
| 2026-05-06 14:42 | 31.81983 | 137.20597 | 36090 ft | 426 kts | 231° |
| 2026-05-06 14:42 | 31.78247 | 137.15245 | 36085 ft | 427 kts | 231° |
| 2026-05-06 14:43 | 31.74473 | 137.09847 | 36088 ft | 428 kts | 231° |
| 2026-05-06 14:43 | 31.70694 | 137.04450 | 36087 ft | 428 kts | 231° |
| 2026-05-06 14:44 | 31.66913 | 136.99056 | 36084 ft | 428 kts | 231° |
| 2026-05-06 14:45 | 31.61244 | 136.90984 | 36080 ft | 427 kts | 231° |
| 2026-05-06 14:45 | 31.57467 | 136.85617 | 36079 ft | 426 kts | 231° |
| 2026-05-06 14:46 | 31.53694 | 136.80261 | 36076 ft | 426 kts | 231° |
| 2026-05-06 14:46 | 31.49923 | 136.74915 | 36074 ft | 425 kts | 230° |
| 2026-05-06 14:47 | 31.46182 | 136.69618 | 36076 ft | 425 kts | 230° |
| 2026-05-06 14:47 | 31.42270 | 136.64440 | 36072 ft | 425 kts | 225° |
| 2026-05-06 14:48 | 31.37820 | 136.59883 | 36074 ft | 425 kts | 222° |
| 2026-05-06 14:48 | 31.33344 | 136.55343 | 36057 ft | 427 kts | 222° |
| 2026-05-06 14:49 | 31.28862 | 136.50779 | 36071 ft | 428 kts | 222° |
| 2026-05-06 14:49 | 31.24364 | 136.46199 | 36071 ft | 429 kts | 222° |
| 2026-05-06 14:50 | 31.19854 | 136.41614 | 36070 ft | 430 kts | 222° |
| 2026-05-06 14:50 | 31.15362 | 136.37053 | 36063 ft | 431 kts | 222° |
| 2026-05-06 14:51 | 31.10837 | 136.32464 | 36064 ft | 431 kts | 221° |
| 2026-05-06 14:51 | 31.06316 | 136.27887 | 36062 ft | 430 kts | 221° |
| 2026-05-06 14:52 | 31.01800 | 136.23321 | 36055 ft | 429 kts | 221° |
| 2026-05-06 14:52 | 30.97285 | 136.18761 | 36060 ft | 429 kts | 221° |
| 2026-05-06 14:53 | 30.92769 | 136.14205 | 36061 ft | 430 kts | 221° |
| 2026-05-06 14:53 | 30.88248 | 136.09651 | 36061 ft | 430 kts | 221° |
| 2026-05-06 14:54 | 30.83721 | 136.05097 | 36059 ft | 430 kts | 221° |
| 2026-05-06 14:54 | 30.79217 | 136.00571 | 36054 ft | 431 kts | 221° |
| 2026-05-06 14:55 | 30.74679 | 135.96017 | 36056 ft | 431 kts | 221° |
| 2026-05-06 14:55 | 30.70139 | 135.91467 | 36043 ft | 431 kts | 221° |
| 2026-05-06 14:56 | 30.65599 | 135.86924 | 36054 ft | 431 kts | 221° |
| 2026-05-06 14:56 | 30.61058 | 135.82385 | 36058 ft | 430 kts | 221° |
| 2026-05-06 14:57 | 30.56520 | 135.77855 | 36053 ft | 430 kts | 221° |
| 2026-05-06 14:57 | 30.51980 | 135.73328 | 36059 ft | 430 kts | 221° |
| 2026-05-06 14:58 | 30.47447 | 135.68814 | 36054 ft | 429 kts | 221° |
| 2026-05-06 14:58 | 30.42945 | 135.64337 | 36053 ft | 429 kts | 221° |
| 2026-05-06 14:59 | 30.38421 | 135.59843 | 36056 ft | 428 kts | 220° |
| 2026-05-06 14:59 | 30.33895 | 135.55353 | 36042 ft | 428 kts | 220° |
| 2026-05-06 15:00 | 30.29365 | 135.50865 | 36053 ft | 429 kts | 220° |
| 2026-05-06 15:00 | 30.24825 | 135.46373 | 36061 ft | 430 kts | 220° |
| 2026-05-06 15:01 | 30.20270 | 135.41871 | 36059 ft | 431 kts | 220° |
| 2026-05-06 15:01 | 30.15736 | 135.37393 | 36051 ft | 432 kts | 220° |
| 2026-05-06 15:02 | 30.11162 | 135.32874 | 36060 ft | 433 kts | 220° |
| 2026-05-06 15:02 | 30.06618 | 135.28290 | 36055 ft | 434 kts | 220° |
| 2026-05-06 15:03 | 30.02075 | 135.23683 | 36053 ft | 435 kts | 220° |
| 2026-05-06 15:03 | 29.97526 | 135.19083 | 36040 ft | 435 kts | 220° |
| 2026-05-06 15:04 | 29.92969 | 135.14488 | 36055 ft | 436 kts | 220° |
| 2026-05-06 15:04 | 29.88395 | 135.09884 | 36051 ft | 437 kts | 220° |
| 2026-05-06 15:05 | 29.83815 | 135.05280 | 36048 ft | 437 kts | 220° |
| 2026-05-06 15:05 | 29.79259 | 135.00707 | 36051 ft | 438 kts | 220° |
| 2026-05-06 15:06 | 29.74672 | 134.96107 | 36054 ft | 437 kts | 220° |
| 2026-05-06 15:06 | 29.70100 | 134.91528 | 36047 ft | 435 kts | 220° |
| 2026-05-06 15:07 | 29.65541 | 134.86970 | 36052 ft | 433 kts | 220° |
| 2026-05-06 15:07 | 29.61000 | 134.82433 | 36047 ft | 432 kts | 220° |
| 2026-05-06 15:08 | 29.56465 | 134.77909 | 36038 ft | 432 kts | 220° |
| 2026-05-06 15:08 | 29.51926 | 134.73386 | 36049 ft | 432 kts | 220° |
| 2026-05-06 15:09 | 29.47403 | 134.68885 | 36051 ft | 434 kts | 220° |
| 2026-05-06 15:09 | 29.42832 | 134.64342 | 36032 ft | 436 kts | 220° |
| 2026-05-06 15:10 | 29.38235 | 134.59778 | 36065 ft | 438 kts | 219° |
| 2026-05-06 15:10 | 29.33615 | 134.55197 | 36049 ft | 440 kts | 219° |
| 2026-05-06 15:11 | 29.28984 | 134.50612 | 36031 ft | 440 kts | 219° |
| 2026-05-06 15:11 | 29.24344 | 134.46023 | 36048 ft | 441 kts | 219° |
| 2026-05-06 15:12 | 29.19702 | 134.41437 | 36058 ft | 441 kts | 219° |
| 2026-05-06 15:12 | 29.15092 | 134.36889 | 36047 ft | 440 kts | 219° |
| 2026-05-06 15:13 | 29.10455 | 134.32320 | 36036 ft | 439 kts | 219° |
| 2026-05-06 15:13 | 29.05825 | 134.27763 | 36047 ft | 439 kts | 219° |
| 2026-05-06 15:14 | 29.01192 | 134.23209 | 36052 ft | 439 kts | 219° |
| 2026-05-06 15:14 | 28.96556 | 134.18658 | 36039 ft | 439 kts | 219° |
| 2026-05-06 15:15 | 28.92700 | 134.14876 | 36053 ft | 440 kts | 219° |
| 2026-05-06 15:15 | 28.88054 | 134.10325 | 36046 ft | 440 kts | 219° |
| 2026-05-06 15:16 | 28.83404 | 134.05776 | 36033 ft | 441 kts | 219° |
| 2026-05-06 15:16 | 28.78742 | 134.01220 | 36065 ft | 442 kts | 219° |
| 2026-05-06 15:17 | 28.74106 | 133.96694 | 36043 ft | 442 kts | 219° |
| 2026-05-06 15:17 | 28.69435 | 133.92140 | 36027 ft | 442 kts | 219° |
| 2026-05-06 15:18 | 28.64764 | 133.87592 | 36047 ft | 442 kts | 219° |
| 2026-05-06 15:18 | 28.60085 | 133.83039 | 36058 ft | 443 kts | 219° |
| 2026-05-06 15:19 | 28.55395 | 133.78488 | 36042 ft | 443 kts | 218° |
| 2026-05-06 15:19 | 28.50702 | 133.73945 | 36051 ft | 443 kts | 218° |
| 2026-05-06 15:20 | 28.46009 | 133.69405 | 36038 ft | 443 kts | 218° |
| 2026-05-06 15:20 | 28.41314 | 133.64868 | 36048 ft | 443 kts | 218° |
| 2026-05-06 15:21 | 28.36620 | 133.60335 | 36037 ft | 443 kts | 218° |
| 2026-05-06 15:21 | 28.31958 | 133.55840 | 36052 ft | 443 kts | 218° |
| 2026-05-06 15:22 | 28.27257 | 133.51312 | 36053 ft | 443 kts | 218° |
| 2026-05-06 15:22 | 28.22559 | 133.46792 | 36035 ft | 443 kts | 218° |
| 2026-05-06 15:23 | 28.17857 | 133.42275 | 36051 ft | 443 kts | 218° |
| 2026-05-06 15:23 | 28.13155 | 133.37762 | 36037 ft | 442 kts | 218° |
| 2026-05-06 15:24 | 28.08465 | 133.33265 | 36043 ft | 441 kts | 218° |
| 2026-05-06 15:24 | 28.03814 | 133.28813 | 36041 ft | 440 kts | 218° |
| 2026-05-06 15:25 | 27.99134 | 133.24336 | 36042 ft | 440 kts | 218° |
| 2026-05-06 15:25 | 27.94452 | 133.19863 | 36049 ft | 440 kts | 218° |
| 2026-05-06 15:26 | 27.89773 | 133.15398 | 36028 ft | 441 kts | 218° |
| 2026-05-06 15:26 | 27.85081 | 133.10937 | 36042 ft | 441 kts | 218° |
| 2026-05-06 15:27 | 27.80374 | 133.06490 | 36045 ft | 441 kts | 218° |
| 2026-05-06 15:27 | 27.75692 | 133.02072 | 36043 ft | 442 kts | 217° |
| 2026-05-06 15:28 | 27.70972 | 132.97619 | 36038 ft | 442 kts | 217° |
| 2026-05-06 15:28 | 27.66249 | 132.93168 | 36038 ft | 442 kts | 217° |
| 2026-05-06 15:29 | 27.61526 | 132.88720 | 36041 ft | 442 kts | 217° |
| 2026-05-06 15:29 | 27.56803 | 132.84277 | 36033 ft | 442 kts | 217° |
| 2026-05-06 15:30 | 27.52079 | 132.79839 | 36040 ft | 442 kts | 217° |
| 2026-05-06 15:30 | 27.47353 | 132.75404 | 36038 ft | 442 kts | 217° |
| 2026-05-06 15:31 | 27.42661 | 132.71007 | 36028 ft | 442 kts | 217° |
| 2026-05-06 15:31 | 27.37927 | 132.66576 | 36046 ft | 443 kts | 217° |
| 2026-05-06 15:32 | 27.30813 | 132.59924 | 36058 ft | 444 kts | 217° |
| 2026-05-06 15:32 | 27.26063 | 132.55489 | 36028 ft | 444 kts | 217° |
| 2026-05-06 15:33 | 27.21318 | 132.51065 | 36035 ft | 443 kts | 217° |
| 2026-05-06 15:33 | 27.16574 | 132.46646 | 36040 ft | 443 kts | 217° |
| 2026-05-06 15:34 | 27.11835 | 132.42238 | 36033 ft | 442 kts | 217° |
| 2026-05-06 15:34 | 27.07125 | 132.37861 | 36050 ft | 442 kts | 217° |
| 2026-05-06 15:35 | 27.02391 | 132.33467 | 36036 ft | 442 kts | 217° |
| 2026-05-06 15:35 | 26.97659 | 132.29079 | 36035 ft | 441 kts | 217° |
| 2026-05-06 15:36 | 26.92930 | 132.24700 | 36030 ft | 441 kts | 217° |
| 2026-05-06 15:36 | 26.88200 | 132.20325 | 36048 ft | 441 kts | 217° |
| 2026-05-06 15:37 | 26.83468 | 132.15951 | 36037 ft | 441 kts | 216° |
| 2026-05-06 15:37 | 26.78741 | 132.11588 | 36037 ft | 440 kts | 216° |
| 2026-05-06 15:38 | 26.74054 | 132.07268 | 36035 ft | 439 kts | 217° |
| 2026-05-06 15:38 | 26.69340 | 132.02926 | 36040 ft | 439 kts | 217° |
| 2026-05-06 15:39 | 26.64623 | 131.98586 | 36053 ft | 439 kts | 217° |
| 2026-05-06 15:39 | 26.59905 | 131.94250 | 36034 ft | 439 kts | 217° |
| 2026-05-06 15:40 | 26.55187 | 131.89919 | 36041 ft | 439 kts | 217° |
| 2026-05-06 15:40 | 26.50471 | 131.85595 | 36035 ft | 439 kts | 217° |
| 2026-05-06 15:41 | 26.45755 | 131.81276 | 36035 ft | 438 kts | 217° |
| 2026-05-06 15:41 | 26.41040 | 131.76963 | 36054 ft | 438 kts | 217° |
| 2026-05-06 15:42 | 26.36324 | 131.72652 | 36043 ft | 438 kts | 217° |
| 2026-05-06 15:42 | 26.31639 | 131.68374 | 36037 ft | 438 kts | 217° |
| 2026-05-06 15:43 | 26.26924 | 131.64074 | 36035 ft | 438 kts | 217° |
| 2026-05-06 15:43 | 26.22207 | 131.59778 | 36036 ft | 438 kts | 217° |
| 2026-05-06 15:44 | 26.17486 | 131.55482 | 36066 ft | 439 kts | 218° |
| 2026-05-06 15:44 | 26.12746 | 131.51173 | 36044 ft | 440 kts | 218° |
| 2026-05-06 15:45 | 26.07998 | 131.46861 | 36015 ft | 441 kts | 218° |
| 2026-05-06 15:45 | 26.03240 | 131.42546 | 36026 ft | 441 kts | 218° |
| 2026-05-06 15:46 | 25.98511 | 131.38260 | 36033 ft | 442 kts | 218° |
| 2026-05-06 15:46 | 25.93746 | 131.33947 | 36061 ft | 442 kts | 218° |
| 2026-05-06 15:47 | 25.88969 | 131.29626 | 36021 ft | 443 kts | 219° |
| 2026-05-06 15:47 | 25.84142 | 131.25381 | 36029 ft | 443 kts | 216° |
| 2026-05-06 15:48 | 25.79086 | 131.21475 | 36033 ft | 443 kts | 215° |
| 2026-05-06 15:48 | 25.74010 | 131.17578 | 36033 ft | 444 kts | 216° |
| 2026-05-06 15:49 | 25.68942 | 131.13678 | 36033 ft | 444 kts | 216° |
| 2026-05-06 15:49 | 25.63901 | 131.09790 | 36039 ft | 446 kts | 217° |
| 2026-05-06 15:50 | 25.58796 | 131.05853 | 36037 ft | 448 kts | 217° |
| 2026-05-06 15:50 | 25.53670 | 131.01904 | 35999 ft | 450 kts | 217° |
| 2026-05-06 15:51 | 25.48528 | 130.97949 | 36024 ft | 451 kts | 217° |
| 2026-05-06 15:51 | 25.43375 | 130.93989 | 36037 ft | 451 kts | 217° |
| 2026-05-06 15:52 | 25.38219 | 130.90031 | 36039 ft | 452 kts | 218° |
| 2026-05-06 15:52 | 25.33084 | 130.86095 | 36032 ft | 452 kts | 218° |
| 2026-05-06 15:53 | 25.27914 | 130.82133 | 36033 ft | 453 kts | 218° |
| 2026-05-06 15:53 | 25.22732 | 130.78167 | 36030 ft | 453 kts | 218° |
| 2026-05-06 15:54 | 25.17547 | 130.74204 | 36036 ft | 453 kts | 218° |
| 2026-05-06 15:54 | 25.12362 | 130.70245 | 36023 ft | 453 kts | 219° |
| 2026-05-06 15:55 | 25.07181 | 130.66293 | 36027 ft | 453 kts | 219° |
| 2026-05-06 15:55 | 25.02001 | 130.62345 | 36029 ft | 453 kts | 219° |
| 2026-05-06 15:56 | 24.96815 | 130.58397 | 36006 ft | 453 kts | 219° |
| 2026-05-06 15:56 | 24.91665 | 130.54481 | 36024 ft | 453 kts | 219° |
| 2026-05-06 15:57 | 24.86482 | 130.50544 | 36027 ft | 453 kts | 219° |
| 2026-05-06 15:57 | 24.81296 | 130.46609 | 36043 ft | 453 kts | 219° |
| 2026-05-06 15:58 | 24.76096 | 130.42666 | 36036 ft | 454 kts | 219° |
| 2026-05-06 15:58 | 24.70884 | 130.38719 | 36031 ft | 455 kts | 219° |
| 2026-05-06 15:59 | 24.65659 | 130.34766 | 36032 ft | 456 kts | 219° |
| 2026-05-06 15:59 | 24.60429 | 130.30813 | 36030 ft | 457 kts | 219° |
| 2026-05-06 16:00 | 24.55197 | 130.26864 | 36035 ft | 456 kts | 219° |
| 2026-05-06 16:00 | 24.49999 | 130.22944 | 36033 ft | 457 kts | 219° |
| 2026-05-06 16:01 | 24.44754 | 130.18990 | 36033 ft | 458 kts | 219° |
| 2026-05-06 16:01 | 24.39492 | 130.15028 | 36012 ft | 459 kts | 219° |
| 2026-05-06 16:02 | 24.34228 | 130.11061 | 36025 ft | 459 kts | 220° |
| 2026-05-06 16:02 | 24.29015 | 130.07018 | 36024 ft | 459 kts | 220° |
| 2026-05-06 16:03 | 24.23819 | 130.02953 | 36032 ft | 459 kts | 220° |
| 2026-05-06 16:03 | 24.18607 | 129.98889 | 35993 ft | 460 kts | 220° |
| 2026-05-06 16:04 | 24.13427 | 129.94864 | 36017 ft | 460 kts | 220° |
| 2026-05-06 16:04 | 24.08202 | 129.90812 | 36022 ft | 460 kts | 220° |
| 2026-05-06 16:05 | 24.02975 | 129.86763 | 36017 ft | 461 kts | 220° |
| 2026-05-06 16:05 | 23.97744 | 129.82715 | 36012 ft | 461 kts | 220° |
| 2026-05-06 16:06 | 23.92511 | 129.78669 | 36017 ft | 461 kts | 220° |
| 2026-05-06 16:06 | 23.87268 | 129.74618 | 36021 ft | 462 kts | 220° |
| 2026-05-06 16:07 | 23.82013 | 129.70563 | 36022 ft | 463 kts | 220° |
| 2026-05-06 16:07 | 23.76746 | 129.66504 | 36011 ft | 463 kts | 220° |
| 2026-05-06 16:08 | 23.71516 | 129.62476 | 36014 ft | 464 kts | 220° |
| 2026-05-06 16:08 | 23.66241 | 129.58418 | 36017 ft | 464 kts | 220° |
| 2026-05-06 16:09 | 23.60954 | 129.54355 | 36008 ft | 465 kts | 220° |
| 2026-05-06 16:09 | 23.55658 | 129.50289 | 36004 ft | 466 kts | 220° |
| 2026-05-06 16:10 | 23.50356 | 129.46222 | 36011 ft | 466 kts | 220° |
| 2026-05-06 16:10 | 23.45046 | 129.42154 | 36009 ft | 467 kts | 220° |
| 2026-05-06 16:11 | 23.39732 | 129.38087 | 35981 ft | 467 kts | 220° |
| 2026-05-06 16:11 | 23.34458 | 129.34054 | 36003 ft | 467 kts | 220° |
| 2026-05-06 16:12 | 23.29142 | 129.29992 | 36005 ft | 467 kts | 220° |
| 2026-05-06 16:12 | 23.23824 | 129.25934 | 36006 ft | 467 kts | 220° |
| 2026-05-06 16:13 | 23.18501 | 129.21875 | 35988 ft | 467 kts | 220° |
| 2026-05-06 16:13 | 23.13180 | 129.17822 | 36001 ft | 467 kts | 220° |
| 2026-05-06 16:14 | 23.07861 | 129.13774 | 36003 ft | 467 kts | 220° |
| 2026-05-06 16:14 | 23.02574 | 129.09753 | 35999 ft | 467 kts | 220° |
| 2026-05-06 16:15 | 22.97298 | 129.05638 | 35990 ft | 466 kts | 222° |
| 2026-05-06 16:15 | 22.92203 | 129.01300 | 36003 ft | 466 kts | 223° |
| 2026-05-06 16:16 | 22.87124 | 128.96928 | 36007 ft | 466 kts | 223° |
| 2026-05-06 16:16 | 22.82019 | 128.92586 | 35995 ft | 467 kts | 223° |
| 2026-05-06 16:17 | 22.76895 | 128.88263 | 35997 ft | 467 kts | 222° |
| 2026-05-06 16:17 | 22.71759 | 128.83944 | 36011 ft | 468 kts | 222° |
| 2026-05-06 16:18 | 22.66615 | 128.79620 | 36002 ft | 468 kts | 222° |
| 2026-05-06 16:18 | 22.61506 | 128.75329 | 35993 ft | 468 kts | 222° |
| 2026-05-06 16:19 | 22.56356 | 128.71007 | 35990 ft | 468 kts | 222° |
| 2026-05-06 16:19 | 22.51216 | 128.66698 | 35991 ft | 467 kts | 222° |
| 2026-05-06 16:20 | 22.46077 | 128.62394 | 35991 ft | 467 kts | 222° |
| 2026-05-06 16:20 | 22.40942 | 128.58096 | 36001 ft | 467 kts | 222° |
| 2026-05-06 16:21 | 22.35808 | 128.53803 | 35984 ft | 467 kts | 222° |
| 2026-05-06 16:21 | 22.30674 | 128.49516 | 35992 ft | 466 kts | 222° |
| 2026-05-06 16:22 | 22.25577 | 128.45262 | 35992 ft | 466 kts | 222° |
| 2026-05-06 16:22 | 22.20443 | 128.40982 | 35993 ft | 466 kts | 222° |
| 2026-05-06 16:23 | 22.15307 | 128.36704 | 35978 ft | 466 kts | 222° |
| 2026-05-06 16:23 | 22.10174 | 128.32434 | 35989 ft | 466 kts | 221° |
| 2026-05-06 16:24 | 22.05043 | 128.28168 | 35989 ft | 466 kts | 221° |
| 2026-05-06 16:24 | 21.99909 | 128.23905 | 35989 ft | 466 kts | 221° |
| 2026-05-06 16:25 | 21.94775 | 128.19644 | 35975 ft | 466 kts | 221° |
| 2026-05-06 16:25 | 21.89640 | 128.15388 | 35986 ft | 466 kts | 221° |
| 2026-05-06 16:26 | 21.84540 | 128.11164 | 35986 ft | 466 kts | 221° |
| 2026-05-06 16:26 | 21.79398 | 128.06909 | 35986 ft | 466 kts | 221° |
| 2026-05-06 16:27 | 21.74252 | 128.02655 | 35968 ft | 466 kts | 221° |
| 2026-05-06 16:27 | 21.69107 | 127.98406 | 35981 ft | 466 kts | 221° |
| 2026-05-06 16:28 | 21.64836 | 127.94882 | 35983 ft | 466 kts | 221° |
| 2026-05-06 16:28 | 21.59687 | 127.90637 | 35985 ft | 466 kts | 221° |
| 2026-05-06 16:29 | 21.54533 | 127.86391 | 35983 ft | 467 kts | 221° |
| 2026-05-06 16:29 | 21.49380 | 127.82150 | 35975 ft | 467 kts | 221° |
| 2026-05-06 16:30 | 21.45094 | 127.78626 | 35982 ft | 467 kts | 221° |
| 2026-05-06 16:30 | 21.39099 | 127.73701 | 35982 ft | 467 kts | 221° |
| 2026-05-06 16:31 | 21.33940 | 127.69466 | 35980 ft | 467 kts | 221° |
| 2026-05-06 16:31 | 21.28777 | 127.65232 | 35978 ft | 467 kts | 221° |
| 2026-05-06 16:32 | 21.23618 | 127.61006 | 35977 ft | 467 kts | 221° |
| 2026-05-06 16:32 | 21.18459 | 127.56783 | 35974 ft | 466 kts | 221° |
| 2026-05-06 16:33 | 21.13304 | 127.52567 | 35976 ft | 466 kts | 221° |
| 2026-05-06 16:34 | 21.05613 | 127.46283 | 35973 ft | 466 kts | 221° |
| 2026-05-06 16:34 | 21.00460 | 127.42077 | 35971 ft | 466 kts | 221° |
| 2026-05-06 16:35 | 20.95350 | 127.37818 | 35974 ft | 465 kts | 222° |
| 2026-05-06 16:35 | 20.90285 | 127.33503 | 35974 ft | 466 kts | 222° |
| 2026-05-06 16:36 | 20.85217 | 127.29189 | 35966 ft | 466 kts | 222° |
| 2026-05-06 16:36 | 20.80141 | 127.24887 | 35970 ft | 465 kts | 221° |
| 2026-05-06 16:37 | 20.75094 | 127.20621 | 35969 ft | 466 kts | 221° |
| 2026-05-06 16:37 | 20.70008 | 127.16327 | 35966 ft | 466 kts | 221° |
| 2026-05-06 16:38 | 20.64913 | 127.12029 | 35965 ft | 467 kts | 221° |
| 2026-05-06 16:38 | 20.59817 | 127.07733 | 35969 ft | 467 kts | 221° |
| 2026-05-06 16:39 | 20.54714 | 127.03435 | 35967 ft | 467 kts | 221° |
| 2026-05-06 16:39 | 20.49609 | 126.99140 | 35969 ft | 467 kts | 221° |
| 2026-05-06 16:40 | 20.44498 | 126.94843 | 35970 ft | 468 kts | 221° |
| 2026-05-06 16:40 | 20.39387 | 126.90550 | 35968 ft | 468 kts | 221° |
| 2026-05-06 16:41 | 20.34306 | 126.86285 | 35961 ft | 468 kts | 221° |
| 2026-05-06 16:41 | 20.29186 | 126.81992 | 35960 ft | 468 kts | 221° |
| 2026-05-06 16:42 | 20.24066 | 126.77703 | 35956 ft | 468 kts | 221° |
| 2026-05-06 16:42 | 20.18948 | 126.73418 | 35963 ft | 468 kts | 221° |
| 2026-05-06 16:43 | 20.13827 | 126.69135 | 35959 ft | 468 kts | 221° |
| 2026-05-06 16:43 | 20.08706 | 126.64856 | 35961 ft | 468 kts | 221° |
| 2026-05-06 16:44 | 20.03616 | 126.60606 | 35958 ft | 468 kts | 221° |
| 2026-05-06 16:44 | 19.98490 | 126.56329 | 35945 ft | 468 kts | 221° |
| 2026-05-06 16:45 | 19.93361 | 126.52055 | 35952 ft | 468 kts | 221° |
| 2026-05-06 16:45 | 19.88233 | 126.47784 | 35953 ft | 469 kts | 221° |
| 2026-05-06 16:46 | 19.83095 | 126.43509 | 35960 ft | 469 kts | 221° |
| 2026-05-06 16:46 | 19.77953 | 126.39233 | 35956 ft | 470 kts | 221° |
| 2026-05-06 16:47 | 19.72806 | 126.34957 | 35951 ft | 470 kts | 221° |
| 2026-05-06 16:47 | 19.67689 | 126.30710 | 35951 ft | 470 kts | 221° |
| 2026-05-06 16:48 | 19.62534 | 126.26435 | 35951 ft | 470 kts | 221° |
| 2026-05-06 16:48 | 19.57375 | 126.22160 | 35949 ft | 471 kts | 221° |
| 2026-05-06 16:49 | 19.52213 | 126.17887 | 35941 ft | 471 kts | 220° |
| 2026-05-06 16:49 | 19.47047 | 126.13613 | 35945 ft | 471 kts | 220° |
| 2026-05-06 16:50 | 19.41881 | 126.09343 | 35942 ft | 471 kts | 220° |
| 2026-05-06 16:50 | 19.36710 | 126.05073 | 35944 ft | 471 kts | 220° |
| 2026-05-06 16:51 | 19.31574 | 126.00834 | 35936 ft | 471 kts | 220° |
| 2026-05-06 16:51 | 19.26400 | 125.96568 | 35947 ft | 471 kts | 220° |
| 2026-05-06 16:52 | 19.21226 | 125.92306 | 35940 ft | 471 kts | 220° |
| 2026-05-06 16:52 | 19.16048 | 125.88043 | 35943 ft | 472 kts | 220° |
| 2026-05-06 16:53 | 19.10870 | 125.83785 | 35944 ft | 472 kts | 220° |
| 2026-05-06 16:53 | 19.05690 | 125.79528 | 35935 ft | 472 kts | 220° |
| 2026-05-06 16:54 | 19.00511 | 125.75275 | 35944 ft | 471 kts | 220° |
| 2026-05-06 16:54 | 18.95367 | 125.71054 | 35938 ft | 471 kts | 220° |
| 2026-05-06 16:55 | 18.90186 | 125.66806 | 35941 ft | 472 kts | 220° |
| 2026-05-06 16:55 | 18.85000 | 125.62558 | 35937 ft | 472 kts | 220° |
| 2026-05-06 16:56 | 18.79816 | 125.58315 | 35936 ft | 472 kts | 220° |
| 2026-05-06 16:56 | 18.74628 | 125.54072 | 35937 ft | 472 kts | 220° |
| 2026-05-06 16:57 | 18.69444 | 125.49835 | 35937 ft | 471 kts | 220° |
| 2026-05-06 16:57 | 18.64256 | 125.45599 | 35933 ft | 472 kts | 220° |
| 2026-05-06 16:58 | 18.59098 | 125.41391 | 35929 ft | 472 kts | 219° |
| 2026-05-06 16:58 | 18.53906 | 125.37158 | 35936 ft | 472 kts | 219° |
| 2026-05-06 16:59 | 18.48710 | 125.32925 | 35931 ft | 472 kts | 219° |
| 2026-05-06 16:59 | 18.43510 | 125.28693 | 35932 ft | 472 kts | 219° |
| 2026-05-06 17:00 | 18.38309 | 125.24463 | 35932 ft | 472 kts | 219° |
| 2026-05-06 17:00 | 18.33105 | 125.20233 | 35931 ft | 473 kts | 219° |
| 2026-05-06 17:01 | 18.27899 | 125.16005 | 35929 ft | 473 kts | 219° |
| 2026-05-06 17:01 | 18.22686 | 125.11775 | 35925 ft | 473 kts | 219° |
| 2026-05-06 17:02 | 18.17509 | 125.07577 | 35927 ft | 473 kts | 219° |
| 2026-05-06 17:02 | 18.12289 | 125.03348 | 35918 ft | 474 kts | 219° |
| 2026-05-06 17:03 | 18.07070 | 124.99123 | 35928 ft | 473 kts | 219° |
| 2026-05-06 17:03 | 18.01849 | 124.94900 | 35922 ft | 474 kts | 219° |
| 2026-05-06 17:04 | 17.96623 | 124.90675 | 35925 ft | 474 kts | 219° |
| 2026-05-06 17:04 | 17.91396 | 124.86453 | 35927 ft | 474 kts | 219° |
| 2026-05-06 17:05 | 17.86165 | 124.82232 | 35916 ft | 474 kts | 219° |
| 2026-05-06 17:05 | 17.80965 | 124.78038 | 35922 ft | 475 kts | 219° |
| 2026-05-06 17:06 | 17.75726 | 124.73816 | 35922 ft | 475 kts | 219° |
| 2026-05-06 17:06 | 17.70482 | 124.69593 | 35920 ft | 475 kts | 219° |
| 2026-05-06 17:07 | 17.65235 | 124.65371 | 35925 ft | 476 kts | 219° |
| 2026-05-06 17:07 | 17.59985 | 124.61149 | 35920 ft | 476 kts | 219° |
| 2026-05-06 17:08 | 17.54730 | 124.56927 | 35922 ft | 476 kts | 219° |
| 2026-05-06 17:08 | 17.49470 | 124.52704 | 35921 ft | 476 kts | 219° |
| 2026-05-06 17:09 | 17.44245 | 124.48511 | 35921 ft | 477 kts | 219° |
| 2026-05-06 17:09 | 17.38980 | 124.44289 | 35914 ft | 477 kts | 219° |
| 2026-05-06 17:10 | 17.33711 | 124.40069 | 35918 ft | 477 kts | 219° |
| 2026-05-06 17:10 | 17.28441 | 124.35854 | 35918 ft | 477 kts | 219° |
| 2026-05-06 17:11 | 17.23163 | 124.31635 | 35917 ft | 477 kts | 219° |
| 2026-05-06 17:11 | 17.17883 | 124.27415 | 35915 ft | 478 kts | 219° |
| 2026-05-06 17:12 | 17.12605 | 124.23200 | 35915 ft | 477 kts | 219° |
| 2026-05-06 17:12 | 17.07362 | 124.19016 | 35915 ft | 477 kts | 219° |
| 2026-05-06 17:13 | 17.02080 | 124.14804 | 35916 ft | 478 kts | 219° |
| 2026-05-06 17:13 | 16.96796 | 124.10593 | 35916 ft | 478 kts | 219° |
| 2026-05-06 17:14 | 16.91508 | 124.06382 | 35918 ft | 478 kts | 219° |
| 2026-05-06 17:14 | 16.86217 | 124.02172 | 35916 ft | 478 kts | 219° |
| 2026-05-06 17:15 | 16.80925 | 123.97965 | 35919 ft | 478 kts | 219° |
| 2026-05-06 17:15 | 16.75639 | 123.93764 | 35914 ft | 478 kts | 218° |
| 2026-05-06 17:16 | 16.70384 | 123.89592 | 35916 ft | 478 kts | 218° |
| 2026-05-06 17:16 | 16.65093 | 123.85393 | 35915 ft | 478 kts | 218° |
| 2026-05-06 17:17 | 16.59794 | 123.81192 | 35915 ft | 478 kts | 218° |
| 2026-05-06 17:17 | 16.54505 | 123.77002 | 35913 ft | 477 kts | 218° |
| 2026-05-06 17:18 | 16.49222 | 123.72819 | 35913 ft | 477 kts | 218° |
| 2026-05-06 17:18 | 16.43941 | 123.68641 | 35917 ft | 476 kts | 218° |
| 2026-05-06 17:19 | 16.38660 | 123.64464 | 35902 ft | 477 kts | 218° |
| 2026-05-06 17:19 | 16.33412 | 123.60319 | 35914 ft | 476 kts | 218° |
| 2026-05-06 17:20 | 16.28132 | 123.56150 | 35912 ft | 476 kts | 218° |
| 2026-05-06 17:20 | 16.22854 | 123.51986 | 35911 ft | 476 kts | 218° |
| 2026-05-06 17:21 | 16.17586 | 123.47831 | 35911 ft | 476 kts | 218° |
| 2026-05-06 17:21 | 16.12313 | 123.43677 | 35901 ft | 475 kts | 218° |
| 2026-05-06 17:22 | 16.07050 | 123.39533 | 35910 ft | 474 kts | 218° |
| 2026-05-06 17:22 | 16.01794 | 123.35397 | 35908 ft | 473 kts | 218° |
| 2026-05-06 17:23 | 15.96546 | 123.31271 | 35908 ft | 473 kts | 218° |
| 2026-05-06 17:23 | 15.91330 | 123.27172 | 35907 ft | 472 kts | 218° |
| 2026-05-06 17:24 | 15.86091 | 123.23057 | 35909 ft | 472 kts | 218° |
| 2026-05-06 17:24 | 15.80847 | 123.18942 | 35907 ft | 472 kts | 218° |
| 2026-05-06 17:25 | 15.75604 | 123.14829 | 35902 ft | 473 kts | 218° |
| 2026-05-06 17:25 | 15.70347 | 123.10709 | 35906 ft | 474 kts | 218° |
| 2026-05-06 17:26 | 15.65077 | 123.06580 | 35907 ft | 475 kts | 218° |
| 2026-05-06 17:26 | 15.59823 | 123.02470 | 35902 ft | 476 kts | 218° |
| 2026-05-06 17:27 | 15.54531 | 122.98337 | 35904 ft | 476 kts | 218° |
| 2026-05-06 17:27 | 15.49239 | 122.94204 | 35904 ft | 476 kts | 218° |
| 2026-05-06 17:28 | 15.43954 | 122.90078 | 35906 ft | 475 kts | 218° |
| 2026-05-06 17:28 | 15.38674 | 122.85959 | 35901 ft | 475 kts | 218° |
| 2026-05-06 17:29 | 15.33391 | 122.81840 | 35901 ft | 475 kts | 218° |
| 2026-05-06 17:29 | 15.28109 | 122.77724 | 35900 ft | 475 kts | 218° |
| 2026-05-06 17:30 | 15.22870 | 122.73644 | 35899 ft | 474 kts | 218° |
| 2026-05-06 17:30 | 15.17593 | 122.69537 | 35901 ft | 474 kts | 218° |
| 2026-05-06 17:31 | 15.12319 | 122.65436 | 35903 ft | 474 kts | 218° |
| 2026-05-06 17:31 | 15.07045 | 122.61337 | 35899 ft | 474 kts | 218° |
| 2026-05-06 17:32 | 15.01768 | 122.57238 | 35900 ft | 474 kts | 218° |
| 2026-05-06 17:32 | 14.96489 | 122.53140 | 35895 ft | 475 kts | 218° |
| 2026-05-06 17:33 | 14.91242 | 122.49070 | 35900 ft | 475 kts | 218° |
| 2026-05-06 17:33 | 14.85958 | 122.44973 | 35897 ft | 475 kts | 218° |
| 2026-05-06 17:34 | 14.80671 | 122.40877 | 35889 ft | 475 kts | 218° |
| 2026-05-06 17:34 | 14.75389 | 122.36785 | 35895 ft | 475 kts | 218° |
| 2026-05-06 17:35 | 14.70121 | 122.32676 | 35897 ft | 474 kts | 220° |
| 2026-05-06 17:35 | 14.65131 | 122.28244 | 35900 ft | 473 kts | 222° |
| 2026-05-06 17:36 | 14.57701 | 122.21525 | 35892 ft | 474 kts | 222° |
| 2026-05-06 17:36 | 14.52759 | 122.17088 | 35892 ft | 474 kts | 222° |
| 2026-05-06 17:37 | 14.47781 | 122.12630 | 35895 ft | 474 kts | 222° |
| 2026-05-06 17:37 | 14.42801 | 122.08172 | 35891 ft | 474 kts | 222° |
| 2026-05-06 17:38 | 14.37821 | 122.03716 | 35893 ft | 474 kts | 222° |
| 2026-05-06 17:38 | 14.32838 | 121.99256 | 35891 ft | 474 kts | 222° |
| 2026-05-06 17:39 | 14.27856 | 121.94797 | 35894 ft | 474 kts | 222° |
| 2026-05-06 17:39 | 14.22874 | 121.90339 | 35897 ft | 474 kts | 222° |
| 2026-05-06 17:40 | 14.17921 | 121.85909 | 35894 ft | 475 kts | 222° |
| 2026-05-06 17:40 | 14.12935 | 121.81453 | 35898 ft | 475 kts | 222° |
| 2026-05-06 17:41 | 14.07942 | 121.76994 | 35894 ft | 475 kts | 222° |
| 2026-05-06 17:41 | 14.02947 | 121.72535 | 35900 ft | 475 kts | 222° |
| 2026-05-06 17:42 | 13.97948 | 121.68075 | 35882 ft | 476 kts | 222° |
| 2026-05-06 17:42 | 13.93790 | 121.64368 | 35921 ft | 477 kts | 222° |
| 2026-05-06 17:43 | 13.91277 | 121.62129 | 36153 ft | 478 kts | 222° |
| 2026-05-06 17:43 | 13.88774 | 121.59898 | 36549 ft | 475 kts | 222° |
| 2026-05-06 17:43 | 13.85483 | 121.56967 | 37136 ft | 470 kts | 222° |
| 2026-05-06 17:43 | 13.83022 | 121.54777 | 37551 ft | 466 kts | 222° |
| 2026-05-06 17:44 | 13.80572 | 121.52596 | 37908 ft | 465 kts | 222° |
| 2026-05-06 17:44 | 13.78912 | 121.51119 | 37886 ft | 468 kts | 222° |
| 2026-05-06 17:44 | 13.74021 | 121.46766 | 37883 ft | 467 kts | 222° |
| 2026-05-06 17:45 | 13.69125 | 121.42414 | 37883 ft | 464 kts | 222° |
| 2026-05-06 17:45 | 13.64244 | 121.38076 | 37886 ft | 464 kts | 222° |
| 2026-05-06 17:46 | 13.59362 | 121.33739 | 37888 ft | 464 kts | 222° |
| 2026-05-06 17:46 | 13.54476 | 121.29402 | 37891 ft | 464 kts | 221° |
| 2026-05-06 17:47 | 13.49583 | 121.25057 | 37894 ft | 465 kts | 222° |
| 2026-05-06 17:47 | 13.44718 | 121.20732 | 37892 ft | 466 kts | 221° |
| 2026-05-06 17:48 | 13.39811 | 121.16371 | 37899 ft | 467 kts | 221° |
| 2026-05-06 17:48 | 13.34895 | 121.12006 | 37902 ft | 468 kts | 221° |
| 2026-05-06 17:49 | 13.29969 | 121.07633 | 37902 ft | 468 kts | 221° |
| 2026-05-06 17:49 | 13.25032 | 121.03253 | 37913 ft | 469 kts | 221° |
| 2026-05-06 17:50 | 13.20076 | 120.98884 | 37902 ft | 470 kts | 221° |
| 2026-05-06 17:50 | 13.15111 | 120.94521 | 37890 ft | 469 kts | 221° |
| 2026-05-06 17:51 | 13.10160 | 120.90168 | 37887 ft | 468 kts | 221° |
| 2026-05-06 17:51 | 13.05248 | 120.85851 | 37887 ft | 468 kts | 221° |
| 2026-05-06 17:52 | 13.00309 | 120.81510 | 37884 ft | 467 kts | 221° |
| 2026-05-06 17:52 | 12.95380 | 120.77178 | 37883 ft | 467 kts | 221° |
| 2026-05-06 17:53 | 12.90450 | 120.72850 | 37857 ft | 466 kts | 221° |
| 2026-05-06 17:53 | 12.85522 | 120.68522 | 37862 ft | 467 kts | 221° |
| 2026-05-06 17:54 | 12.80628 | 120.64215 | 37866 ft | 467 kts | 221° |
| 2026-05-06 17:54 | 12.75691 | 120.59870 | 37853 ft | 468 kts | 221° |
| 2026-05-06 17:55 | 12.70743 | 120.55519 | 37854 ft | 469 kts | 221° |
| 2026-05-06 17:55 | 12.65789 | 120.51165 | 37847 ft | 470 kts | 221° |
| 2026-05-06 17:56 | 12.60829 | 120.46807 | 37845 ft | 470 kts | 221° |
| 2026-05-06 17:56 | 12.55863 | 120.42448 | 37848 ft | 470 kts | 221° |
| 2026-05-06 17:57 | 12.50895 | 120.38089 | 37847 ft | 471 kts | 221° |
| 2026-05-06 17:57 | 12.45922 | 120.33728 | 37846 ft | 471 kts | 221° |
| 2026-05-06 17:58 | 12.40950 | 120.29370 | 37847 ft | 470 kts | 221° |
| 2026-05-06 17:58 | 12.36015 | 120.25045 | 37846 ft | 470 kts | 221° |
| 2026-05-06 17:59 | 12.31046 | 120.20694 | 37844 ft | 470 kts | 221° |
| 2026-05-06 17:59 | 12.26080 | 120.16348 | 37853 ft | 470 kts | 221° |
| 2026-05-06 18:00 | 12.21112 | 120.12003 | 37852 ft | 470 kts | 221° |
| 2026-05-06 18:00 | 12.16143 | 120.07658 | 37855 ft | 470 kts | 221° |
| 2026-05-06 18:01 | 12.11204 | 120.03342 | 37851 ft | 470 kts | 221° |
| 2026-05-06 18:01 | 12.06233 | 119.99000 | 37848 ft | 470 kts | 221° |
| 2026-05-06 18:02 | 12.01261 | 119.94659 | 37843 ft | 470 kts | 221° |
| 2026-05-06 18:02 | 11.96282 | 119.90315 | 37850 ft | 471 kts | 221° |
| 2026-05-06 18:03 | 11.91303 | 119.85972 | 37848 ft | 471 kts | 221° |
| 2026-05-06 18:03 | 11.86315 | 119.81624 | 37848 ft | 471 kts | 221° |
| 2026-05-06 18:04 | 11.81358 | 119.77304 | 37848 ft | 472 kts | 221° |
| 2026-05-06 18:04 | 11.76368 | 119.72958 | 37839 ft | 472 kts | 221° |
| 2026-05-06 18:05 | 11.71417 | 119.68562 | 37847 ft | 472 kts | 225° |
| 2026-05-06 18:05 | 11.67135 | 119.63506 | 37848 ft | 471 kts | 234° |
| 2026-05-06 18:06 | 11.63304 | 119.58075 | 37851 ft | 472 kts | 234° |
| 2026-05-06 18:06 | 11.59468 | 119.52641 | 37851 ft | 472 kts | 234° |
| 2026-05-06 18:07 | 11.55605 | 119.47219 | 37851 ft | 472 kts | 234° |
| 2026-05-06 18:07 | 11.51736 | 119.41810 | 37849 ft | 472 kts | 234° |
| 2026-05-06 18:08 | 11.47891 | 119.36440 | 37845 ft | 472 kts | 234° |
| 2026-05-06 18:08 | 11.44020 | 119.31036 | 37851 ft | 472 kts | 234° |
| 2026-05-06 18:09 | 11.40150 | 119.25635 | 37850 ft | 472 kts | 234° |
| 2026-05-06 18:09 | 11.36277 | 119.20232 | 37850 ft | 472 kts | 234° |
| 2026-05-06 18:10 | 11.32401 | 119.14828 | 37850 ft | 472 kts | 234° |
| 2026-05-06 18:10 | 11.28527 | 119.09428 | 37849 ft | 472 kts | 234° |
| 2026-05-06 18:11 | 11.24647 | 119.04024 | 37850 ft | 472 kts | 234° |
| 2026-05-06 18:11 | 11.20768 | 118.98623 | 37843 ft | 472 kts | 234° |
| 2026-05-06 18:12 | 11.16914 | 118.93260 | 37847 ft | 473 kts | 234° |
| 2026-05-06 18:12 | 11.13027 | 118.87852 | 37850 ft | 473 kts | 234° |
| 2026-05-06 18:13 | 11.09133 | 118.82444 | 37848 ft | 474 kts | 234° |
| 2026-05-06 18:13 | 11.05231 | 118.77032 | 37847 ft | 474 kts | 234° |
| 2026-05-06 18:14 | 11.01330 | 118.71621 | 37847 ft | 475 kts | 234° |
| 2026-05-06 18:14 | 10.97422 | 118.66201 | 37847 ft | 475 kts | 234° |
| 2026-05-06 18:15 | 10.93542 | 118.60823 | 37846 ft | 475 kts | 234° |
| 2026-05-06 18:15 | 10.89630 | 118.55403 | 37845 ft | 475 kts | 234° |
| 2026-05-06 18:16 | 10.85715 | 118.49981 | 37848 ft | 476 kts | 234° |
| 2026-05-06 18:16 | 10.81797 | 118.44558 | 37847 ft | 476 kts | 234° |
| 2026-05-06 18:17 | 10.77875 | 118.39133 | 37847 ft | 476 kts | 234° |
| 2026-05-06 18:17 | 10.73952 | 118.33708 | 37847 ft | 476 kts | 234° |
| 2026-05-06 18:18 | 10.70023 | 118.28279 | 37846 ft | 476 kts | 234° |
| 2026-05-06 18:18 | 10.66122 | 118.22890 | 37847 ft | 476 kts | 234° |
| 2026-05-06 18:19 | 10.62194 | 118.17467 | 37842 ft | 477 kts | 234° |
| 2026-05-06 18:19 | 10.58261 | 118.12040 | 37848 ft | 477 kts | 234° |
| 2026-05-06 18:20 | 10.54329 | 118.06615 | 37854 ft | 477 kts | 234° |
| 2026-05-06 18:20 | 10.50390 | 118.01186 | 37845 ft | 477 kts | 234° |
| 2026-05-06 18:21 | 10.46454 | 117.95762 | 37846 ft | 477 kts | 234° |
| 2026-05-06 18:21 | 10.42539 | 117.90369 | 37845 ft | 477 kts | 234° |
| 2026-05-06 18:22 | 10.38602 | 117.84946 | 37841 ft | 477 kts | 234° |
| 2026-05-06 18:22 | 10.34660 | 117.79520 | 37847 ft | 477 kts | 234° |
| 2026-05-06 18:23 | 10.30750 | 117.74081 | 37843 ft | 477 kts | 234° |
| 2026-05-06 18:23 | 10.26852 | 117.68630 | 37843 ft | 477 kts | 234° |
| 2026-05-06 18:24 | 10.22953 | 117.63184 | 37846 ft | 477 kts | 234° |
| 2026-05-06 18:24 | 10.19050 | 117.57742 | 37842 ft | 477 kts | 234° |
| 2026-05-06 18:25 | 10.15169 | 117.52335 | 37844 ft | 477 kts | 234° |
| 2026-05-06 18:25 | 10.11263 | 117.46896 | 37842 ft | 477 kts | 234° |
| 2026-05-06 18:26 | 10.07355 | 117.41456 | 37844 ft | 477 kts | 234° |
| 2026-05-06 18:26 | 10.03443 | 117.36014 | 37842 ft | 477 kts | 234° |
| 2026-05-06 18:27 | 9.99527 | 117.30569 | 37849 ft | 478 kts | 234° |
| 2026-05-06 18:27 | 9.95606 | 117.25119 | 37848 ft | 479 kts | 234° |
| 2026-05-06 18:28 | 9.91677 | 117.19659 | 37850 ft | 479 kts | 234° |
| 2026-05-06 18:28 | 9.87744 | 117.14198 | 37845 ft | 480 kts | 234° |
| 2026-05-06 18:29 | 9.83835 | 117.08772 | 37846 ft | 480 kts | 234° |
| 2026-05-06 18:29 | 9.79899 | 117.03311 | 37850 ft | 479 kts | 234° |
| 2026-05-06 18:30 | 9.75963 | 116.97853 | 37842 ft | 480 kts | 234° |
| 2026-05-06 18:30 | 9.72026 | 116.92396 | 37851 ft | 479 kts | 234° |
| 2026-05-06 18:31 | 9.68088 | 116.86939 | 37845 ft | 480 kts | 234° |
| 2026-05-06 18:31 | 9.64144 | 116.81477 | 37844 ft | 480 kts | 234° |
| 2026-05-06 18:32 | 9.60202 | 116.76021 | 37846 ft | 480 kts | 234° |
| 2026-05-06 18:32 | 9.56280 | 116.70593 | 37843 ft | 480 kts | 234° |
| 2026-05-06 18:33 | 9.52334 | 116.65136 | 37845 ft | 480 kts | 234° |
| 2026-05-06 18:33 | 9.48388 | 116.59681 | 37850 ft | 480 kts | 234° |
| 2026-05-06 18:34 | 9.44436 | 116.54220 | 37839 ft | 481 kts | 234° |
| 2026-05-06 18:34 | 9.40482 | 116.48758 | 37846 ft | 481 kts | 234° |
| 2026-05-06 18:35 | 9.36526 | 116.43295 | 37847 ft | 481 kts | 235° |
| 2026-05-06 18:35 | 9.32565 | 116.37828 | 37843 ft | 482 kts | 234° |
| 2026-05-06 18:36 | 9.28598 | 116.32355 | 37845 ft | 482 kts | 234° |
| 2026-05-06 18:36 | 9.24652 | 116.26927 | 37846 ft | 482 kts | 234° |
| 2026-05-06 18:37 | 9.21315 | 116.22358 | 37846 ft | 482 kts | 234° |
| 2026-05-06 18:37 | 9.16685 | 116.16019 | 37843 ft | 482 kts | 234° |
| 2026-05-06 18:38 | 9.12700 | 116.10562 | 37845 ft | 482 kts | 234° |
| 2026-05-06 18:38 | 9.08710 | 116.05098 | 37846 ft | 483 kts | 234° |
| 2026-05-06 18:39 | 9.04713 | 115.99626 | 37849 ft | 484 kts | 234° |
| 2026-05-06 18:40 | 8.98705 | 115.91406 | 37847 ft | 485 kts | 234° |
| 2026-05-06 18:40 | 8.94698 | 115.85926 | 37851 ft | 485 kts | 234° |
| 2026-05-06 18:41 | 8.90708 | 115.80481 | 37848 ft | 485 kts | 234° |
| 2026-05-06 18:41 | 8.86686 | 115.75000 | 37842 ft | 485 kts | 234° |
| 2026-05-06 18:42 | 8.82663 | 115.69515 | 37849 ft | 486 kts | 234° |
| 2026-05-06 18:42 | 8.78633 | 115.64021 | 37840 ft | 487 kts | 234° |
| 2026-05-06 18:43 | 8.74596 | 115.58518 | 37854 ft | 488 kts | 233° |
| 2026-05-06 18:43 | 8.70548 | 115.53004 | 37848 ft | 489 kts | 233° |
| 2026-05-06 18:44 | 8.66491 | 115.47481 | 37853 ft | 489 kts | 233° |
| 2026-05-06 18:44 | 8.62430 | 115.41954 | 37844 ft | 490 kts | 233° |
| 2026-05-06 18:45 | 8.58394 | 115.36463 | 37849 ft | 490 kts | 233° |
| 2026-05-06 18:45 | 8.54332 | 115.30939 | 37854 ft | 490 kts | 233° |
| 2026-05-06 18:46 | 8.50269 | 115.25416 | 37842 ft | 490 kts | 233° |
| 2026-05-06 18:46 | 8.46207 | 115.19897 | 37844 ft | 489 kts | 233° |
| 2026-05-06 18:47 | 8.42147 | 115.14383 | 37851 ft | 489 kts | 233° |
| 2026-05-06 18:47 | 8.38089 | 115.08874 | 37846 ft | 489 kts | 233° |
| 2026-05-06 18:48 | 8.34032 | 115.03367 | 37841 ft | 489 kts | 233° |
| 2026-05-06 18:48 | 8.29975 | 114.97863 | 37842 ft | 489 kts | 233° |
| 2026-05-06 18:49 | 8.25942 | 114.92393 | 37850 ft | 489 kts | 233° |
| 2026-05-06 18:49 | 8.21873 | 114.86878 | 37846 ft | 490 kts | 233° |
| 2026-05-06 18:50 | 8.17797 | 114.81355 | 37848 ft | 491 kts | 233° |
| 2026-05-06 18:50 | 8.13712 | 114.75822 | 37847 ft | 492 kts | 233° |
| 2026-05-06 18:51 | 8.09622 | 114.70283 | 37840 ft | 492 kts | 233° |
| 2026-05-06 18:51 | 8.05528 | 114.64743 | 37849 ft | 492 kts | 233° |
| 2026-05-06 18:52 | 8.01460 | 114.59239 | 37845 ft | 492 kts | 233° |
| 2026-05-06 18:52 | 7.97366 | 114.53702 | 37840 ft | 492 kts | 233° |
| 2026-05-06 18:53 | 7.93275 | 114.48171 | 37852 ft | 492 kts | 233° |
| 2026-05-06 18:53 | 7.89189 | 114.42649 | 37845 ft | 491 kts | 233° |
| 2026-05-06 18:54 | 7.85108 | 114.37136 | 37838 ft | 490 kts | 233° |
| 2026-05-06 18:54 | 7.81028 | 114.31627 | 37842 ft | 490 kts | 233° |
| 2026-05-06 18:55 | 7.76946 | 114.26117 | 37849 ft | 490 kts | 233° |
| 2026-05-06 18:55 | 7.72860 | 114.20603 | 37841 ft | 491 kts | 233° |
| 2026-05-06 18:56 | 7.68795 | 114.15119 | 37851 ft | 492 kts | 233° |
| 2026-05-06 18:56 | 7.64695 | 114.09590 | 37852 ft | 493 kts | 233° |
| 2026-05-06 18:57 | 7.60590 | 114.04057 | 37841 ft | 493 kts | 233° |
| 2026-05-06 18:57 | 7.57150 | 113.99422 | 37840 ft | 492 kts | 233° |
| 2026-05-06 18:58 | 7.53077 | 113.93935 | 37845 ft | 492 kts | 233° |
| 2026-05-06 18:58 | 7.48981 | 113.88420 | 37836 ft | 491 kts | 233° |
| 2026-05-06 18:59 | 7.44894 | 113.82918 | 37840 ft | 490 kts | 233° |
| 2026-05-06 18:59 | 7.40805 | 113.77416 | 37843 ft | 490 kts | 233° |
| 2026-05-06 19:00 | 7.36721 | 113.71922 | 37832 ft | 490 kts | 233° |
| 2026-05-06 19:00 | 7.32632 | 113.66424 | 37837 ft | 491 kts | 233° |
| 2026-05-06 19:01 | 7.28537 | 113.60920 | 37849 ft | 491 kts | 233° |
| 2026-05-06 19:01 | 7.24433 | 113.55405 | 37841 ft | 492 kts | 233° |
| 2026-05-06 19:02 | 7.20351 | 113.49920 | 37833 ft | 493 kts | 233° |
| 2026-05-06 19:02 | 7.16237 | 113.44397 | 37837 ft | 493 kts | 233° |
| 2026-05-06 19:03 | 7.12117 | 113.38866 | 37836 ft | 494 kts | 233° |
| 2026-05-06 19:03 | 7.07996 | 113.33336 | 37835 ft | 494 kts | 233° |
| 2026-05-06 19:04 | 7.03880 | 113.27814 | 37835 ft | 495 kts | 233° |
| 2026-05-06 19:04 | 6.99750 | 113.22275 | 37845 ft | 495 kts | 233° |
| 2026-05-06 19:05 | 6.95618 | 113.16737 | 37838 ft | 495 kts | 233° |
| 2026-05-06 19:05 | 6.91490 | 113.11204 | 37835 ft | 494 kts | 233° |
| 2026-05-06 19:06 | 6.87388 | 113.05709 | 37837 ft | 494 kts | 233° |
| 2026-05-06 19:06 | 6.83263 | 113.00184 | 37841 ft | 494 kts | 233° |
| 2026-05-06 19:07 | 6.79132 | 112.94653 | 37836 ft | 494 kts | 233° |
| 2026-05-06 19:07 | 6.75002 | 112.89126 | 37839 ft | 494 kts | 233° |
| 2026-05-06 19:08 | 6.70866 | 112.83591 | 37843 ft | 495 kts | 233° |
| 2026-05-06 19:08 | 6.66729 | 112.78057 | 37840 ft | 495 kts | 233° |
| 2026-05-06 19:09 | 6.62619 | 112.72562 | 37835 ft | 495 kts | 233° |
| 2026-05-06 19:09 | 6.58482 | 112.67031 | 37836 ft | 495 kts | 233° |
| 2026-05-06 19:10 | 6.54346 | 112.61502 | 37839 ft | 495 kts | 233° |
| 2026-05-06 19:10 | 6.50207 | 112.55974 | 37837 ft | 495 kts | 233° |
| 2026-05-06 19:11 | 6.46067 | 112.50450 | 37838 ft | 494 kts | 233° |
| 2026-05-06 19:11 | 6.41932 | 112.44932 | 37840 ft | 494 kts | 233° |
| 2026-05-06 19:12 | 6.37793 | 112.39408 | 37838 ft | 494 kts | 233° |
| 2026-05-06 19:12 | 6.33655 | 112.33887 | 37838 ft | 495 kts | 233° |
| 2026-05-06 19:13 | 6.29541 | 112.28400 | 37841 ft | 495 kts | 232° |
| 2026-05-06 19:13 | 6.25402 | 112.22881 | 37838 ft | 495 kts | 232° |
| 2026-05-06 19:14 | 6.21260 | 112.17361 | 37839 ft | 494 kts | 232° |
| 2026-05-06 19:14 | 6.17121 | 112.11845 | 37838 ft | 494 kts | 232° |
| 2026-05-06 19:15 | 6.12978 | 112.06325 | 37835 ft | 495 kts | 232° |
| 2026-05-06 19:15 | 6.08834 | 112.00806 | 37839 ft | 495 kts | 232° |
| 2026-05-06 19:16 | 6.04687 | 111.95285 | 37841 ft | 495 kts | 232° |
| 2026-05-06 19:16 | 6.00535 | 111.89759 | 37838 ft | 496 kts | 232° |
| 2026-05-06 19:17 | 5.96406 | 111.84265 | 37842 ft | 496 kts | 232° |
| 2026-05-06 19:17 | 5.92252 | 111.78738 | 37838 ft | 496 kts | 232° |
| 2026-05-06 19:18 | 5.88093 | 111.73208 | 37833 ft | 496 kts | 232° |
| 2026-05-06 19:18 | 5.83940 | 111.67686 | 37836 ft | 496 kts | 232° |
| 2026-05-06 19:19 | 5.79781 | 111.62159 | 37835 ft | 496 kts | 232° |
| 2026-05-06 19:19 | 5.75623 | 111.56634 | 37836 ft | 496 kts | 232° |
| 2026-05-06 19:20 | 5.71466 | 111.51112 | 37839 ft | 496 kts | 232° |
| 2026-05-06 19:20 | 5.67309 | 111.45591 | 37834 ft | 496 kts | 232° |
| 2026-05-06 19:21 | 5.63183 | 111.40112 | 37838 ft | 495 kts | 232° |
| 2026-05-06 19:21 | 5.59038 | 111.34610 | 37830 ft | 494 kts | 232° |
| 2026-05-06 19:22 | 5.54901 | 111.29121 | 37829 ft | 492 kts | 232° |
| 2026-05-06 19:22 | 5.50773 | 111.23644 | 37832 ft | 492 kts | 232° |
| 2026-05-06 19:23 | 5.46648 | 111.18174 | 37833 ft | 491 kts | 232° |
| 2026-05-06 19:23 | 5.42529 | 111.12712 | 37832 ft | 491 kts | 232° |
| 2026-05-06 19:24 | 5.38431 | 111.07279 | 37834 ft | 492 kts | 232° |
| 2026-05-06 19:24 | 5.34301 | 111.01806 | 37835 ft | 492 kts | 232° |
| 2026-05-06 19:25 | 5.30161 | 110.96320 | 37830 ft | 493 kts | 231° |
| 2026-05-06 19:25 | 5.26013 | 110.90826 | 37835 ft | 494 kts | 231° |
| 2026-05-06 19:26 | 5.21859 | 110.85327 | 37839 ft | 495 kts | 231° |
| 2026-05-06 19:26 | 5.17700 | 110.79820 | 37835 ft | 495 kts | 231° |
| 2026-05-06 19:27 | 5.13540 | 110.74313 | 37833 ft | 495 kts | 231° |
| 2026-05-06 19:27 | 5.09405 | 110.68841 | 37833 ft | 495 kts | 231° |
| 2026-05-06 19:28 | 5.05245 | 110.63338 | 37833 ft | 495 kts | 231° |
| 2026-05-06 19:28 | 5.01088 | 110.57839 | 37833 ft | 495 kts | 231° |
| 2026-05-06 19:29 | 4.96932 | 110.52342 | 37828 ft | 495 kts | 231° |
| 2026-05-06 19:29 | 4.92770 | 110.46841 | 37838 ft | 495 kts | 231° |
| 2026-05-06 19:30 | 4.88604 | 110.41334 | 37830 ft | 496 kts | 231° |
| 2026-05-06 19:30 | 4.84429 | 110.35818 | 37834 ft | 497 kts | 231° |
| 2026-05-06 19:31 | 4.80251 | 110.30298 | 37834 ft | 497 kts | 231° |
| 2026-05-06 19:31 | 4.74003 | 110.22045 | 37833 ft | 498 kts | 231° |
| 2026-05-06 19:32 | 4.69815 | 110.16515 | 37833 ft | 498 kts | 231° |
| 2026-05-06 19:32 | 4.65628 | 110.10989 | 37831 ft | 498 kts | 231° |
| 2026-05-06 19:33 | 4.61444 | 110.05466 | 37836 ft | 497 kts | 231° |
| 2026-05-06 19:33 | 4.57267 | 109.99954 | 37830 ft | 496 kts | 231° |
| 2026-05-06 19:34 | 4.53103 | 109.94461 | 37828 ft | 494 kts | 231° |
| 2026-05-06 19:34 | 4.48945 | 109.88977 | 37829 ft | 493 kts | 231° |
| 2026-05-06 19:35 | 4.44795 | 109.83503 | 37831 ft | 493 kts | 231° |
| 2026-05-06 19:35 | 4.40676 | 109.78072 | 37833 ft | 493 kts | 231° |
| 2026-05-06 19:36 | 4.36526 | 109.72603 | 37833 ft | 493 kts | 231° |
| 2026-05-06 19:36 | 4.32371 | 109.67126 | 37834 ft | 494 kts | 231° |
| 2026-05-06 19:37 | 4.28209 | 109.61641 | 37839 ft | 495 kts | 231° |
| 2026-05-06 19:37 | 4.24746 | 109.57079 | 37834 ft | 495 kts | 231° |
| 2026-05-06 19:38 | 4.19866 | 109.50669 | 37832 ft | 495 kts | 231° |
| 2026-05-06 19:38 | 4.15693 | 109.45190 | 37833 ft | 495 kts | 231° |
| 2026-05-06 19:39 | 4.11545 | 109.39743 | 37830 ft | 495 kts | 231° |
| 2026-05-06 19:39 | 4.07363 | 109.34251 | 37834 ft | 496 kts | 231° |
| 2026-05-06 19:40 | 4.03177 | 109.28754 | 37832 ft | 496 kts | 231° |
| 2026-05-06 19:40 | 3.98986 | 109.23253 | 37831 ft | 497 kts | 231° |
| 2026-05-06 19:41 | 3.94793 | 109.17749 | 37831 ft | 497 kts | 231° |
| 2026-05-06 19:41 | 3.90596 | 109.12241 | 37831 ft | 497 kts | 231° |
| 2026-05-06 19:42 | 3.86425 | 109.06768 | 37829 ft | 498 kts | 231° |
| 2026-05-06 19:42 | 3.82221 | 109.01252 | 37831 ft | 498 kts | 231° |
| 2026-05-06 19:43 | 3.78014 | 108.95734 | 37832 ft | 499 kts | 231° |
| 2026-05-06 19:43 | 3.73804 | 108.90210 | 37833 ft | 499 kts | 231° |
| 2026-05-06 19:44 | 3.69594 | 108.84688 | 37837 ft | 499 kts | 231° |
| 2026-05-06 19:44 | 3.65421 | 108.79189 | 37832 ft | 499 kts | 231° |
| 2026-05-06 19:45 | 3.61225 | 108.73651 | 37840 ft | 499 kts | 232° |
| 2026-05-06 19:45 | 3.57037 | 108.68124 | 37837 ft | 498 kts | 232° |
| 2026-05-06 19:46 | 3.52853 | 108.62606 | 37831 ft | 497 kts | 232° |
| 2026-05-06 19:46 | 3.48680 | 108.57104 | 37830 ft | 496 kts | 232° |
| 2026-05-06 19:47 | 3.44514 | 108.51612 | 37827 ft | 495 kts | 232° |
| 2026-05-06 19:47 | 3.40378 | 108.46162 | 37830 ft | 495 kts | 232° |
| 2026-05-06 19:48 | 3.36218 | 108.40680 | 37833 ft | 495 kts | 231° |
| 2026-05-06 19:48 | 3.32057 | 108.35197 | 37829 ft | 495 kts | 231° |
| 2026-05-06 19:49 | 3.27895 | 108.29716 | 37830 ft | 495 kts | 231° |
| 2026-05-06 19:49 | 3.23733 | 108.24234 | 37839 ft | 494 kts | 231° |
| 2026-05-06 19:50 | 3.19577 | 108.18760 | 37831 ft | 493 kts | 231° |
| 2026-05-06 19:50 | 3.15427 | 108.13296 | 37828 ft | 492 kts | 231° |
| 2026-05-06 19:51 | 3.11317 | 108.07886 | 37829 ft | 491 kts | 231° |
| 2026-05-06 19:51 | 3.07182 | 108.02442 | 37835 ft | 491 kts | 231° |
| 2026-05-06 19:52 | 3.03052 | 107.97006 | 37835 ft | 490 kts | 231° |
| 2026-05-06 19:52 | 2.98924 | 107.91575 | 37833 ft | 490 kts | 231° |
| 2026-05-06 19:53 | 2.94795 | 107.86141 | 37835 ft | 491 kts | 231° |
| 2026-05-06 19:53 | 2.90664 | 107.80706 | 37835 ft | 491 kts | 231° |
| 2026-05-06 19:54 | 2.86532 | 107.75271 | 37832 ft | 491 kts | 231° |
| 2026-05-06 19:54 | 2.82396 | 107.69832 | 37830 ft | 491 kts | 231° |
| 2026-05-06 19:55 | 2.78285 | 107.64426 | 37832 ft | 492 kts | 231° |
| 2026-05-06 19:55 | 2.74145 | 107.58982 | 37837 ft | 492 kts | 231° |
| 2026-05-06 19:56 | 2.70004 | 107.53537 | 37837 ft | 492 kts | 231° |
| 2026-05-06 19:56 | 2.65858 | 107.48087 | 37836 ft | 492 kts | 231° |
| 2026-05-06 19:57 | 2.61711 | 107.42636 | 37836 ft | 492 kts | 231° |
| 2026-05-06 19:57 | 2.57565 | 107.37188 | 37831 ft | 493 kts | 231° |
| 2026-05-06 19:58 | 2.53408 | 107.31725 | 37836 ft | 494 kts | 231° |
| 2026-05-06 19:58 | 2.49250 | 107.26261 | 37832 ft | 494 kts | 231° |
| 2026-05-06 19:59 | 2.45116 | 107.20828 | 37833 ft | 494 kts | 231° |
| 2026-05-06 19:59 | 2.40955 | 107.15361 | 37832 ft | 494 kts | 231° |
| 2026-05-06 20:00 | 2.36794 | 107.09895 | 37830 ft | 494 kts | 231° |
| 2026-05-06 20:00 | 2.32626 | 107.04445 | 37837 ft | 493 kts | 231° |
| 2026-05-06 20:01 | 2.28446 | 106.98998 | 37834 ft | 494 kts | 231° |
| 2026-05-06 20:01 | 2.24268 | 106.93550 | 37834 ft | 494 kts | 231° |
| 2026-05-06 20:02 | 2.20083 | 106.88088 | 37833 ft | 495 kts | 231° |
| 2026-05-06 20:02 | 2.15900 | 106.82629 | 37840 ft | 494 kts | 231° |
| 2026-05-06 20:03 | 2.11723 | 106.77177 | 37834 ft | 494 kts | 231° |
| 2026-05-06 20:03 | 2.07548 | 106.71730 | 37832 ft | 493 kts | 231° |
| 2026-05-06 20:04 | 2.03411 | 106.66332 | 37828 ft | 493 kts | 231° |
| 2026-05-06 20:04 | 1.99243 | 106.60895 | 37837 ft | 493 kts | 231° |
| 2026-05-06 20:05 | 1.95071 | 106.55454 | 37834 ft | 493 kts | 231° |
| 2026-05-06 20:05 | 1.90893 | 106.50004 | 37837 ft | 494 kts | 231° |
| 2026-05-06 20:06 | 1.86710 | 106.44548 | 37836 ft | 495 kts | 231° |
| 2026-05-06 20:06 | 1.82521 | 106.39085 | 37833 ft | 495 kts | 231° |
| 2026-05-06 20:07 | 1.79038 | 106.34544 | 37833 ft | 495 kts | 231° |
| 2026-05-06 20:07 | 1.74843 | 106.29073 | 37828 ft | 497 kts | 231° |
| 2026-05-06 20:08 | 1.70635 | 106.23585 | 37838 ft | 498 kts | 231° |
| 2026-05-06 20:08 | 1.65732 | 106.17193 | 37835 ft | 499 kts | 231° |
| 2026-05-06 20:09 | 1.62192 | 106.12578 | 37834 ft | 500 kts | 231° |
| 2026-05-06 20:09 | 1.57963 | 106.07061 | 37837 ft | 500 kts | 231° |
| 2026-05-06 20:10 | 1.53758 | 106.01577 | 37837 ft | 500 kts | 231° |
| 2026-05-06 20:10 | 1.49529 | 105.96060 | 37832 ft | 500 kts | 232° |
| 2026-05-06 20:11 | 1.45300 | 105.90543 | 37833 ft | 500 kts | 232° |
| 2026-05-06 20:11 | 1.43188 | 105.87787 | 37725 ft | 501 kts | 232° |
| 2026-05-06 20:11 | 1.41050 | 105.84998 | 36665 ft | 504 kts | 232° |
| 2026-05-06 20:12 | 1.38938 | 105.82243 | 35929 ft | 498 kts | 232° |
| 2026-05-06 20:12 | 1.36826 | 105.79488 | 35064 ft | 500 kts | 232° |
| 2026-05-06 20:12 | 1.34733 | 105.76758 | 34144 ft | 490 kts | 232° |
| 2026-05-06 20:12 | 1.32686 | 105.74083 | 33162 ft | 480 kts | 232° |
| 2026-05-06 20:13 | 1.30679 | 105.71458 | 32184 ft | 471 kts | 232° |
| 2026-05-06 20:13 | 1.28699 | 105.68868 | 31266 ft | 468 kts | 231° |
| 2026-05-06 20:13 | 1.26713 | 105.66271 | 30341 ft | 474 kts | 231° |
| 2026-05-06 20:13 | 1.24695 | 105.63634 | 29647 ft | 483 kts | 231° |
| 2026-05-06 20:14 | 1.22631 | 105.60939 | 28870 ft | 493 kts | 231° |
| 2026-05-06 20:14 | 1.20579 | 105.58164 | 28129 ft | 498 kts | 237° |
| 2026-05-06 20:14 | 1.19149 | 105.55057 | 27425 ft | 487 kts | 253° |
| 2026-05-06 20:14 | 1.18690 | 105.51791 | 26764 ft | 466 kts | 271° |
| 2026-05-06 20:15 | 1.18768 | 105.48621 | 26161 ft | 448 kts | 270° |
| 2026-05-06 20:15 | 1.18756 | 105.45549 | 25563 ft | 437 kts | 269° |
| 2026-05-06 20:15 | 1.18688 | 105.42521 | 24961 ft | 436 kts | 268° |
| 2026-05-06 20:15 | 1.18599 | 105.39454 | 24360 ft | 450 kts | 268° |
| 2026-05-06 20:16 | 1.18505 | 105.36275 | 23731 ft | 465 kts | 268° |
| 2026-05-06 20:16 | 1.18413 | 105.33045 | 23060 ft | 460 kts | 268° |
| 2026-05-06 20:16 | 1.18328 | 105.29911 | 22163 ft | 442 kts | 269° |
| 2026-05-06 20:16 | 1.18250 | 105.26904 | 21320 ft | 423 kts | 269° |
| 2026-05-06 20:17 | 1.18178 | 105.24052 | 20862 ft | 396 kts | 269° |
| 2026-05-06 20:17 | 1.18111 | 105.21414 | 20677 ft | 365 kts | 269° |
| 2026-05-06 20:17 | 1.18049 | 105.18972 | 20467 ft | 340 kts | 269° |
| 2026-05-06 20:17 | 1.17991 | 105.16703 | 20090 ft | 323 kts | 269° |
| 2026-05-06 20:18 | 1.17935 | 105.14490 | 19542 ft | 315 kts | 269° |
| 2026-05-06 20:18 | 1.17879 | 105.12321 | 18895 ft | 311 kts | 269° |
| 2026-05-06 20:18 | 1.17825 | 105.10172 | 18245 ft | 308 kts | 269° |
| 2026-05-06 20:18 | 1.17777 | 105.08033 | 17554 ft | 310 kts | 269° |
| 2026-05-06 20:19 | 1.17732 | 105.05876 | 17210 ft | 309 kts | 269° |
| 2026-05-06 20:19 | 1.17687 | 105.03752 | 16979 ft | 303 kts | 269° |
| 2026-05-06 20:19 | 1.17643 | 105.01660 | 16680 ft | 300 kts | 269° |
| 2026-05-06 20:19 | 1.17600 | 104.99579 | 16351 ft | 299 kts | 269° |
| 2026-05-06 20:20 | 1.17556 | 104.97507 | 16013 ft | 298 kts | 269° |
| 2026-05-06 20:20 | 1.17512 | 104.95445 | 15697 ft | 296 kts | 269° |
| 2026-05-06 20:20 | 1.17469 | 104.93394 | 15389 ft | 294 kts | 269° |
| 2026-05-06 20:20 | 1.17425 | 104.91355 | 15092 ft | 293 kts | 269° |
| 2026-05-06 20:21 | 1.17382 | 104.89324 | 14775 ft | 292 kts | 269° |
| 2026-05-06 20:21 | 1.17339 | 104.87304 | 14474 ft | 290 kts | 269° |
| 2026-05-06 20:21 | 1.17296 | 104.85295 | 14186 ft | 289 kts | 269° |
| 2026-05-06 20:21 | 1.17254 | 104.83295 | 13899 ft | 287 kts | 269° |
| 2026-05-06 20:22 | 1.17211 | 104.81308 | 13599 ft | 286 kts | 269° |
| 2026-05-06 20:22 | 1.17168 | 104.79327 | 13270 ft | 284 kts | 269° |
| 2026-05-06 20:22 | 1.17123 | 104.77360 | 12971 ft | 282 kts | 269° |
| 2026-05-06 20:22 | 1.17078 | 104.75405 | 12678 ft | 280 kts | 269° |
| 2026-05-06 20:23 | 1.17033 | 104.73465 | 12368 ft | 279 kts | 269° |
| 2026-05-06 20:23 | 1.16989 | 104.71536 | 12071 ft | 277 kts | 269° |
| 2026-05-06 20:23 | 1.16945 | 104.69620 | 11770 ft | 275 kts | 269° |
| 2026-05-06 20:23 | 1.16901 | 104.67711 | 11480 ft | 274 kts | 269° |
| 2026-05-06 20:24 | 1.16858 | 104.65819 | 11191 ft | 272 kts | 269° |
| 2026-05-06 20:24 | 1.16815 | 104.63936 | 10916 ft | 270 kts | 269° |
| 2026-05-06 20:24 | 1.16772 | 104.62089 | 10641 ft | 269 kts | 268° |
| 2026-05-06 20:24 | 1.16729 | 104.60228 | 10363 ft | 267 kts | 268° |
| 2026-05-06 20:25 | 1.16687 | 104.58379 | 10109 ft | 264 kts | 268° |
| 2026-05-06 20:25 | 1.16646 | 104.56577 | 10051 ft | 256 kts | 268° |
| 2026-05-06 20:25 | 1.16605 | 104.54784 | 10015 ft | 261 kts | 268° |
| 2026-05-06 20:25 | 1.16563 | 104.52955 | 10023 ft | 266 kts | 268° |
| 2026-05-06 20:26 | 1.16520 | 104.51096 | 10005 ft | 268 kts | 268° |
| 2026-05-06 20:26 | 1.16477 | 104.49246 | 9995 ft | 266 kts | 268° |
| 2026-05-06 20:26 | 1.16435 | 104.47409 | 9993 ft | 264 kts | 268° |
| 2026-05-06 20:26 | 1.16499 | 104.45600 | 9978 ft | 259 kts | 284° |
| 2026-05-06 20:27 | 1.17276 | 104.43995 | 9850 ft | 258 kts | 304° |
| 2026-05-06 20:27 | 1.18304 | 104.42510 | 9529 ft | 261 kts | 304° |
| 2026-05-06 20:27 | 1.19336 | 104.41010 | 9182 ft | 262 kts | 304° |
| 2026-05-06 20:27 | 1.20364 | 104.39513 | 8862 ft | 261 kts | 304° |
| 2026-05-06 20:28 | 1.21386 | 104.38021 | 8579 ft | 259 kts | 304° |
| 2026-05-06 20:28 | 1.22399 | 104.36539 | 8296 ft | 257 kts | 304° |
| 2026-05-06 20:28 | 1.23407 | 104.35062 | 8000 ft | 256 kts | 304° |
| 2026-05-06 20:28 | 1.24408 | 104.33594 | 7728 ft | 255 kts | 304° |
| 2026-05-06 20:29 | 1.25401 | 104.32134 | 7440 ft | 253 kts | 304° |
| 2026-05-06 20:29 | 1.26389 | 104.30681 | 7162 ft | 252 kts | 303° |
| 2026-05-06 20:29 | 1.27357 | 104.29257 | 7056 ft | 242 kts | 303° |
| 2026-05-06 20:29 | 1.28284 | 104.27894 | 6962 ft | 232 kts | 303° |
| 2026-05-06 20:30 | 1.29172 | 104.26589 | 6824 ft | 223 kts | 303° |
| 2026-05-06 20:30 | 1.30856 | 104.24112 | 6543 ft | 204 kts | 303° |
| 2026-05-06 20:30 | 1.31662 | 104.22926 | 6555 ft | 210 kts | 303° |
| 2026-05-06 20:31 | 1.32532 | 104.21719 | 6510 ft | 219 kts | 315° |
| 2026-05-06 20:31 | 1.33871 | 104.21020 | 6317 ft | 219 kts | 348° |
| 2026-05-06 20:31 | 1.35368 | 104.20741 | 6167 ft | 220 kts | 348° |
| 2026-05-06 20:31 | 1.36869 | 104.20437 | 5959 ft | 219 kts | 348° |
| 2026-05-06 20:32 | 1.38351 | 104.20131 | 5758 ft | 216 kts | 348° |
| 2026-05-06 20:32 | 1.39809 | 104.19827 | 5570 ft | 212 kts | 347° |
| 2026-05-06 20:32 | 1.41225 | 104.19530 | 5390 ft | 208 kts | 347° |
| 2026-05-06 20:32 | 1.42637 | 104.19231 | 5235 ft | 208 kts | 347° |
| 2026-05-06 20:33 | 1.44064 | 104.18927 | 5135 ft | 212 kts | 347° |
| 2026-05-06 20:33 | 1.45527 | 104.18614 | 4896 ft | 216 kts | 347° |
| 2026-05-06 20:33 | 1.46985 | 104.18302 | 4695 ft | 213 kts | 347° |
| 2026-05-06 20:33 | 1.48424 | 104.17994 | 4501 ft | 210 kts | 347° |
| 2026-05-06 20:34 | 1.49841 | 104.17690 | 4316 ft | 206 kts | 347° |
| 2026-05-06 20:34 | 1.51090 | 104.17146 | 4097 ft | 190 kts | 315° |
| 2026-05-06 20:34 | 1.51692 | 104.16076 | 3958 ft | 169 kts | 282° |
| 2026-05-06 20:34 | 1.51778 | 104.14952 | 3811 ft | 161 kts | 258° |
| 2026-05-06 20:35 | 1.51516 | 104.13859 | 3758 ft | 164 kts | 256° |
| 2026-05-06 20:35 | 1.51277 | 104.12745 | 3600 ft | 163 kts | 257° |
| 2026-05-06 20:35 | 1.51040 | 104.11652 | 3444 ft | 159 kts | 257° |
| 2026-05-06 20:35 | 1.50804 | 104.10576 | 3324 ft | 159 kts | 257° |
| 2026-05-06 20:36 | 1.50565 | 104.09496 | 3196 ft | 160 kts | 257° |
| 2026-05-06 20:36 | 1.50324 | 104.08414 | 3065 ft | 159 kts | 257° |
| 2026-05-06 20:36 | 1.50084 | 104.07336 | 2925 ft | 159 kts | 257° |
| 2026-05-06 20:36 | 1.49845 | 104.06260 | 2786 ft | 158 kts | 257° |
| 2026-05-06 20:37 | 1.49606 | 104.05189 | 2660 ft | 158 kts | 256° |
| 2026-05-06 20:37 | 1.49113 | 104.04241 | 2457 ft | 158 kts | 215° |
| 2026-05-06 20:37 | 1.48140 | 104.03723 | 2337 ft | 156 kts | 207° |
| 2026-05-06 20:37 | 1.47234 | 104.03210 | 2114 ft | 144 kts | 210° |
| 2026-05-06 20:38 | 1.46342 | 104.02729 | 1915 ft | 147 kts | 206° |
| 2026-05-06 20:38 | 1.45412 | 104.02299 | 1715 ft | 148 kts | 204° |
| 2026-05-06 20:38 | 1.44476 | 104.01889 | 1603 ft | 146 kts | 203° |
| 2026-05-06 20:38 | 1.43536 | 104.01480 | 1542 ft | 149 kts | 204° |
| 2026-05-06 20:39 | 1.42587 | 104.01011 | 1230 ft | 154 kts | 205° |
| 2026-05-06 20:39 | 1.41642 | 104.00615 | 961 ft | 145 kts | 202° |
| 2026-05-06 20:39 | 1.40708 | 104.00219 | 709 ft | 146 kts | 203° |
| 2026-05-06 20:39 | 1.39767 | 103.99822 | 473 ft | 149 kts | 204° |
| 2026-05-06 20:40 | 1.38832 | 103.99410 | 301 ft | 145 kts | 205° |
| 2026-05-06 20:40 | 1.37910 | 103.99017 | 140 ft | 149 kts | 204° |
| 2026-05-06 20:40 | 1.36964 | 103.98620 | 41 ft | 143 kts | 201° |
| 2026-05-06 20:40 | 1.36189 | 103.98290 | 35 ft | 107 kts | 203° |
| 2026-05-06 20:41 | 1.35739 | 103.98105 | 35 ft | 23 kts | 201° |
| 2026-05-06 20:41 | 1.35615 | 103.98114 | 35 ft | 15 kts | 172° |
| 2026-05-06 20:41 | 1.35535 | 103.98165 | 35 ft | 15 kts | 101° |
| 2026-05-06 20:41 | 1.35598 | 103.98236 | 35 ft | 15 kts | 21° |
| 2026-05-06 20:42 | 1.35683 | 103.98271 | 35 ft | 12 kts | 24° |
| 2026-05-06 20:42 | 1.35765 | 103.98307 | 35 ft | 13 kts | 24° |
| 2026-05-06 20:42 | 1.35854 | 103.98346 | 35 ft | 14 kts | 21° |
| 2026-05-06 20:42 | 1.35947 | 103.98383 | 35 ft | 15 kts | 22° |
| 2026-05-06 20:43 | 1.36029 | 103.98417 | 35 ft | 13 kts | 22° |
| 2026-05-06 20:43 | 1.36102 | 103.98463 | 35 ft | 9 kts | 61° |
| 2026-05-06 20:43 | 1.36099 | 103.98525 | 35 ft | 10 kts | 109° |
| 2026-05-06 20:43 | 1.36059 | 103.98582 | 35 ft | 11 kts | 150° |
| 2026-05-06 20:44 | 1.36006 | 103.98603 | 35 ft | 7 kts | 159° |
| 2026-05-06 20:44 | 1.35969 | 103.98617 | 35 ft | 5 kts | 160° |
| 2026-05-06 20:44 | 1.35931 | 103.98630 | 35 ft | 5 kts | 161° |
| 2026-05-06 20:44 | 1.35921 | 103.98633 | 35 ft | 2 kts | 160° |
| 2026-05-06 20:45 | 1.35917 | 103.98635 | 35 ft | 0 kts | 160° |